<?xml version="1.0" encoding="UTF-8" standalone="no" ?>
<gpx xmlns="http://www.topografix.com/GPX/1/1" xmlns:xsi="http://www.w3.org/2001/XMLSchema-instance" xsi:schemaLocation="http://www.topografix.com/GPX/1/1 http://www.topografix.com/GPX/1/1/gpx.xsd" version="1.1" creator="VisuGPX - https://www.visugpx.com">
  <metadata>
    <name>Les Malvallons par la Cayolle</name>
    <desc><![CDATA[Démarrage du parking de la Cayolle. Boucle par las Malvallons et retour au point de départ]]></desc>
  </metadata>
  <trk>
    <name><![CDATA[Les Malvallons par la Cayolle_1]]></name>
    <trkseg>
      <trkpt lat="43.23104" lon="5.39524">
        <ele>69</ele>
        <time>2013-11-24T10:35:33Z</time>
      </trkpt>
      <trkpt lat="43.23093" lon="5.3949">
        <ele>68</ele>
        <time>2013-11-24T10:36:08Z</time>
      </trkpt>
      <trkpt lat="43.23087" lon="5.39478">
        <ele>67</ele>
        <time>2013-11-24T10:36:17Z</time>
      </trkpt>
      <trkpt lat="43.23081" lon="5.39466">
        <ele>66</ele>
        <time>2013-11-24T10:36:26Z</time>
      </trkpt>
      <trkpt lat="43.23072" lon="5.39455">
        <ele>65</ele>
        <time>2013-11-24T10:36:36Z</time>
      </trkpt>
      <trkpt lat="43.23064" lon="5.39446">
        <ele>65</ele>
        <time>2013-11-24T10:36:46Z</time>
      </trkpt>
      <trkpt lat="43.23061" lon="5.39445">
        <ele>65</ele>
        <time>2013-11-24T10:36:55Z</time>
      </trkpt>
      <trkpt lat="43.23055" lon="5.3944">
        <ele>65</ele>
        <time>2013-11-24T10:37:05Z</time>
      </trkpt>
      <trkpt lat="43.23046" lon="5.39435">
        <ele>65</ele>
        <time>2013-11-24T10:37:15Z</time>
      </trkpt>
      <trkpt lat="43.23038" lon="5.39428">
        <ele>65</ele>
        <time>2013-11-24T10:37:24Z</time>
      </trkpt>
      <trkpt lat="43.2303" lon="5.3942">
        <ele>66</ele>
        <time>2013-11-24T10:37:34Z</time>
      </trkpt>
      <trkpt lat="43.23021" lon="5.39418">
        <ele>66</ele>
        <time>2013-11-24T10:37:45Z</time>
      </trkpt>
      <trkpt lat="43.23011" lon="5.39418">
        <ele>68</ele>
        <time>2013-11-24T10:37:54Z</time>
      </trkpt>
      <trkpt lat="43.23003" lon="5.39423">
        <ele>72</ele>
        <time>2013-11-24T10:38:04Z</time>
      </trkpt>
      <trkpt lat="43.22998" lon="5.39423">
        <ele>75</ele>
        <time>2013-11-24T10:38:21Z</time>
      </trkpt>
      <trkpt lat="43.23002" lon="5.39424">
        <ele>75</ele>
        <time>2013-11-24T10:38:32Z</time>
      </trkpt>
      <trkpt lat="43.23006" lon="5.39426">
        <ele>75</ele>
        <time>2013-11-24T10:38:42Z</time>
      </trkpt>
      <trkpt lat="43.23003" lon="5.39421">
        <ele>75</ele>
        <time>2013-11-24T10:38:52Z</time>
      </trkpt>
      <trkpt lat="43.23" lon="5.39418">
        <ele>75</ele>
        <time>2013-11-24T10:39:03Z</time>
      </trkpt>
      <trkpt lat="43.23002" lon="5.39423">
        <ele>75</ele>
        <time>2013-11-24T10:39:12Z</time>
      </trkpt>
      <trkpt lat="43.23001" lon="5.39422">
        <ele>75</ele>
        <time>2013-11-24T10:39:21Z</time>
      </trkpt>
      <trkpt lat="43.23011" lon="5.39414">
        <ele>75</ele>
        <time>2013-11-24T10:39:31Z</time>
      </trkpt>
      <trkpt lat="43.23018" lon="5.39406">
        <ele>75</ele>
        <time>2013-11-24T10:39:40Z</time>
      </trkpt>
      <trkpt lat="43.23022" lon="5.39395">
        <ele>72</ele>
        <time>2013-11-24T10:39:49Z</time>
      </trkpt>
      <trkpt lat="43.23025" lon="5.39383">
        <ele>67</ele>
        <time>2013-11-24T10:39:58Z</time>
      </trkpt>
      <trkpt lat="43.23026" lon="5.39368">
        <ele>65</ele>
        <time>2013-11-24T10:40:07Z</time>
      </trkpt>
      <trkpt lat="43.23022" lon="5.39354">
        <ele>63</ele>
        <time>2013-11-24T10:40:16Z</time>
      </trkpt>
      <trkpt lat="43.23019" lon="5.39337">
        <ele>62</ele>
        <time>2013-11-24T10:40:25Z</time>
      </trkpt>
      <trkpt lat="43.23011" lon="5.39323">
        <ele>62</ele>
        <time>2013-11-24T10:40:34Z</time>
      </trkpt>
      <trkpt lat="43.23001" lon="5.39313">
        <ele>63</ele>
        <time>2013-11-24T10:40:43Z</time>
      </trkpt>
      <trkpt lat="43.22992" lon="5.393">
        <ele>67</ele>
        <time>2013-11-24T10:40:52Z</time>
      </trkpt>
      <trkpt lat="43.22982" lon="5.39292">
        <ele>67</ele>
        <time>2013-11-24T10:41:01Z</time>
      </trkpt>
      <trkpt lat="43.22974" lon="5.39284">
        <ele>67</ele>
        <time>2013-11-24T10:41:10Z</time>
      </trkpt>
      <trkpt lat="43.22964" lon="5.39273">
        <ele>67</ele>
        <time>2013-11-24T10:41:19Z</time>
      </trkpt>
      <trkpt lat="43.22955" lon="5.39259">
        <ele>67</ele>
        <time>2013-11-24T10:41:29Z</time>
      </trkpt>
      <trkpt lat="43.22948" lon="5.39247">
        <ele>68</ele>
        <time>2013-11-24T10:41:38Z</time>
      </trkpt>
      <trkpt lat="43.22938" lon="5.39231">
        <ele>71</ele>
        <time>2013-11-24T10:41:48Z</time>
      </trkpt>
      <trkpt lat="43.22932" lon="5.39217">
        <ele>73</ele>
        <time>2013-11-24T10:41:57Z</time>
      </trkpt>
      <trkpt lat="43.22923" lon="5.39206">
        <ele>73</ele>
        <time>2013-11-24T10:42:07Z</time>
      </trkpt>
      <trkpt lat="43.22914" lon="5.39194">
        <ele>73</ele>
        <time>2013-11-24T10:42:17Z</time>
      </trkpt>
      <trkpt lat="43.22907" lon="5.39182">
        <ele>73</ele>
        <time>2013-11-24T10:42:26Z</time>
      </trkpt>
      <trkpt lat="43.22897" lon="5.39171">
        <ele>73</ele>
        <time>2013-11-24T10:42:35Z</time>
      </trkpt>
      <trkpt lat="43.22886" lon="5.39162">
        <ele>73</ele>
        <time>2013-11-24T10:42:44Z</time>
      </trkpt>
      <trkpt lat="43.22874" lon="5.39156">
        <ele>73</ele>
        <time>2013-11-24T10:42:53Z</time>
      </trkpt>
      <trkpt lat="43.22863" lon="5.39151">
        <ele>74</ele>
        <time>2013-11-24T10:43:02Z</time>
      </trkpt>
      <trkpt lat="43.2285" lon="5.39145">
        <ele>75</ele>
        <time>2013-11-24T10:43:11Z</time>
      </trkpt>
      <trkpt lat="43.22839" lon="5.39139">
        <ele>77</ele>
        <time>2013-11-24T10:43:20Z</time>
      </trkpt>
      <trkpt lat="43.22827" lon="5.39137">
        <ele>77</ele>
        <time>2013-11-24T10:43:29Z</time>
      </trkpt>
      <trkpt lat="43.22816" lon="5.39133">
        <ele>77</ele>
        <time>2013-11-24T10:43:38Z</time>
      </trkpt>
      <trkpt lat="43.22804" lon="5.39129">
        <ele>77</ele>
        <time>2013-11-24T10:43:47Z</time>
      </trkpt>
      <trkpt lat="43.22792" lon="5.39126">
        <ele>77</ele>
        <time>2013-11-24T10:43:56Z</time>
      </trkpt>
      <trkpt lat="43.2278" lon="5.39122">
        <ele>77</ele>
        <time>2013-11-24T10:44:05Z</time>
      </trkpt>
      <trkpt lat="43.22769" lon="5.39113">
        <ele>77</ele>
        <time>2013-11-24T10:44:14Z</time>
      </trkpt>
      <trkpt lat="43.2276" lon="5.39102">
        <ele>77</ele>
        <time>2013-11-24T10:44:24Z</time>
      </trkpt>
      <trkpt lat="43.22752" lon="5.39092">
        <ele>77</ele>
        <time>2013-11-24T10:44:34Z</time>
      </trkpt>
      <trkpt lat="43.22743" lon="5.39083">
        <ele>77</ele>
        <time>2013-11-24T10:44:44Z</time>
      </trkpt>
      <trkpt lat="43.22738" lon="5.3907">
        <ele>79</ele>
        <time>2013-11-24T10:44:54Z</time>
      </trkpt>
      <trkpt lat="43.22733" lon="5.39058">
        <ele>79</ele>
        <time>2013-11-24T10:45:04Z</time>
      </trkpt>
      <trkpt lat="43.22727" lon="5.39045">
        <ele>79</ele>
        <time>2013-11-24T10:45:13Z</time>
      </trkpt>
      <trkpt lat="43.22719" lon="5.39039">
        <ele>83</ele>
        <time>2013-11-24T10:45:22Z</time>
      </trkpt>
      <trkpt lat="43.2271" lon="5.39036">
        <ele>85</ele>
        <time>2013-11-24T10:45:31Z</time>
      </trkpt>
      <trkpt lat="43.22702" lon="5.39036">
        <ele>87</ele>
        <time>2013-11-24T10:45:40Z</time>
      </trkpt>
      <trkpt lat="43.22695" lon="5.3904">
        <ele>87</ele>
        <time>2013-11-24T10:45:49Z</time>
      </trkpt>
      <trkpt lat="43.22687" lon="5.39044">
        <ele>90</ele>
        <time>2013-11-24T10:45:58Z</time>
      </trkpt>
      <trkpt lat="43.2268" lon="5.39047">
        <ele>92</ele>
        <time>2013-11-24T10:46:08Z</time>
      </trkpt>
      <trkpt lat="43.22673" lon="5.39051">
        <ele>93</ele>
        <time>2013-11-24T10:46:17Z</time>
      </trkpt>
      <trkpt lat="43.22665" lon="5.39052">
        <ele>93</ele>
        <time>2013-11-24T10:46:27Z</time>
      </trkpt>
      <trkpt lat="43.2266" lon="5.39052">
        <ele>96</ele>
        <time>2013-11-24T10:46:36Z</time>
      </trkpt>
      <trkpt lat="43.22651" lon="5.39053">
        <ele>98</ele>
        <time>2013-11-24T10:46:45Z</time>
      </trkpt>
      <trkpt lat="43.22642" lon="5.39055">
        <ele>101</ele>
        <time>2013-11-24T10:46:55Z</time>
      </trkpt>
      <trkpt lat="43.22633" lon="5.39058">
        <ele>101</ele>
        <time>2013-11-24T10:47:05Z</time>
      </trkpt>
      <trkpt lat="43.22623" lon="5.39057">
        <ele>101</ele>
        <time>2013-11-24T10:47:15Z</time>
      </trkpt>
      <trkpt lat="43.22614" lon="5.39058">
        <ele>101</ele>
        <time>2013-11-24T10:47:24Z</time>
      </trkpt>
      <trkpt lat="43.22606" lon="5.39054">
        <ele>101</ele>
        <time>2013-11-24T10:47:34Z</time>
      </trkpt>
      <trkpt lat="43.22598" lon="5.3905">
        <ele>102</ele>
        <time>2013-11-24T10:47:44Z</time>
      </trkpt>
      <trkpt lat="43.22589" lon="5.39047">
        <ele>106</ele>
        <time>2013-11-24T10:47:53Z</time>
      </trkpt>
      <trkpt lat="43.22581" lon="5.39048">
        <ele>111</ele>
        <time>2013-11-24T10:48:02Z</time>
      </trkpt>
      <trkpt lat="43.22572" lon="5.39048">
        <ele>113</ele>
        <time>2013-11-24T10:48:12Z</time>
      </trkpt>
      <trkpt lat="43.22564" lon="5.39045">
        <ele>113</ele>
        <time>2013-11-24T10:48:21Z</time>
      </trkpt>
      <trkpt lat="43.22554" lon="5.39045">
        <ele>113</ele>
        <time>2013-11-24T10:48:30Z</time>
      </trkpt>
      <trkpt lat="43.22552" lon="5.39044">
        <ele>113</ele>
        <time>2013-11-24T10:48:56Z</time>
      </trkpt>
      <trkpt lat="43.2255" lon="5.39045">
        <ele>117</ele>
        <time>2013-11-24T10:49:09Z</time>
      </trkpt>
      <trkpt lat="43.2255" lon="5.39046">
        <ele>119</ele>
        <time>2013-11-24T10:49:19Z</time>
      </trkpt>
      <trkpt lat="43.22539" lon="5.39048">
        <ele>119</ele>
        <time>2013-11-24T10:49:29Z</time>
      </trkpt>
      <trkpt lat="43.22529" lon="5.39046">
        <ele>119</ele>
        <time>2013-11-24T10:49:38Z</time>
      </trkpt>
      <trkpt lat="43.22519" lon="5.39045">
        <ele>119</ele>
        <time>2013-11-24T10:49:47Z</time>
      </trkpt>
      <trkpt lat="43.22509" lon="5.39045">
        <ele>119</ele>
        <time>2013-11-24T10:49:56Z</time>
      </trkpt>
      <trkpt lat="43.22499" lon="5.39045">
        <ele>119</ele>
        <time>2013-11-24T10:50:05Z</time>
      </trkpt>
      <trkpt lat="43.2249" lon="5.39045">
        <ele>119</ele>
        <time>2013-11-24T10:50:14Z</time>
      </trkpt>
      <trkpt lat="43.22481" lon="5.39046">
        <ele>119</ele>
        <time>2013-11-24T10:50:24Z</time>
      </trkpt>
      <trkpt lat="43.22473" lon="5.39047">
        <ele>119</ele>
        <time>2013-11-24T10:50:34Z</time>
      </trkpt>
      <trkpt lat="43.22467" lon="5.3905">
        <ele>119</ele>
        <time>2013-11-24T10:50:44Z</time>
      </trkpt>
      <trkpt lat="43.22464" lon="5.39058">
        <ele>119</ele>
        <time>2013-11-24T10:50:53Z</time>
      </trkpt>
      <trkpt lat="43.22461" lon="5.39067">
        <ele>119</ele>
        <time>2013-11-24T10:51:03Z</time>
      </trkpt>
      <trkpt lat="43.22464" lon="5.39057">
        <ele>122</ele>
        <time>2013-11-24T10:51:12Z</time>
      </trkpt>
      <trkpt lat="43.22459" lon="5.39051">
        <ele>124</ele>
        <time>2013-11-24T10:51:27Z</time>
      </trkpt>
      <trkpt lat="43.22455" lon="5.39052">
        <ele>124</ele>
        <time>2013-11-24T10:51:36Z</time>
      </trkpt>
      <trkpt lat="43.22449" lon="5.39053">
        <ele>124</ele>
        <time>2013-11-24T10:51:46Z</time>
      </trkpt>
      <trkpt lat="43.22443" lon="5.39051">
        <ele>124</ele>
        <time>2013-11-24T10:51:56Z</time>
      </trkpt>
      <trkpt lat="43.22439" lon="5.39049">
        <ele>124</ele>
        <time>2013-11-24T10:52:05Z</time>
      </trkpt>
      <trkpt lat="43.22435" lon="5.39049">
        <ele>128</ele>
        <time>2013-11-24T10:52:14Z</time>
      </trkpt>
      <trkpt lat="43.2243" lon="5.3905">
        <ele>131</ele>
        <time>2013-11-24T10:52:27Z</time>
      </trkpt>
      <trkpt lat="43.22425" lon="5.3905">
        <ele>131</ele>
        <time>2013-11-24T10:52:38Z</time>
      </trkpt>
      <trkpt lat="43.22422" lon="5.3905">
        <ele>136</ele>
        <time>2013-11-24T10:52:51Z</time>
      </trkpt>
      <trkpt lat="43.22418" lon="5.39045">
        <ele>137</ele>
        <time>2013-11-24T10:53:00Z</time>
      </trkpt>
      <trkpt lat="43.22415" lon="5.39043">
        <ele>137</ele>
        <time>2013-11-24T10:53:09Z</time>
      </trkpt>
      <trkpt lat="43.22411" lon="5.39041">
        <ele>137</ele>
        <time>2013-11-24T10:53:18Z</time>
      </trkpt>
      <trkpt lat="43.22406" lon="5.39039">
        <ele>137</ele>
        <time>2013-11-24T10:53:28Z</time>
      </trkpt>
      <trkpt lat="43.22401" lon="5.39034">
        <ele>140</ele>
        <time>2013-11-24T10:53:37Z</time>
      </trkpt>
      <trkpt lat="43.22403" lon="5.39027">
        <ele>143</ele>
        <time>2013-11-24T10:53:48Z</time>
      </trkpt>
      <trkpt lat="43.22404" lon="5.3902">
        <ele>143</ele>
        <time>2013-11-24T10:53:57Z</time>
      </trkpt>
      <trkpt lat="43.22404" lon="5.39014">
        <ele>144</ele>
        <time>2013-11-24T10:54:06Z</time>
      </trkpt>
      <trkpt lat="43.22403" lon="5.39005">
        <ele>144</ele>
        <time>2013-11-24T10:54:16Z</time>
      </trkpt>
      <trkpt lat="43.22409" lon="5.39001">
        <ele>145</ele>
        <time>2013-11-24T10:54:27Z</time>
      </trkpt>
      <trkpt lat="43.22412" lon="5.38994">
        <ele>148</ele>
        <time>2013-11-24T10:54:37Z</time>
      </trkpt>
      <trkpt lat="43.22412" lon="5.38988">
        <ele>152</ele>
        <time>2013-11-24T10:54:46Z</time>
      </trkpt>
      <trkpt lat="43.22414" lon="5.3898">
        <ele>156</ele>
        <time>2013-11-24T10:54:57Z</time>
      </trkpt>
      <trkpt lat="43.2242" lon="5.38979">
        <ele>157</ele>
        <time>2013-11-24T10:55:07Z</time>
      </trkpt>
      <trkpt lat="43.22425" lon="5.38978">
        <ele>160</ele>
        <time>2013-11-24T10:55:18Z</time>
      </trkpt>
      <trkpt lat="43.22425" lon="5.38975">
        <ele>162</ele>
        <time>2013-11-24T10:55:28Z</time>
      </trkpt>
      <trkpt lat="43.22422" lon="5.38969">
        <ele>162</ele>
        <time>2013-11-24T10:55:39Z</time>
      </trkpt>
      <trkpt lat="43.22421" lon="5.38965">
        <ele>162</ele>
        <time>2013-11-24T10:55:48Z</time>
      </trkpt>
      <trkpt lat="43.2242" lon="5.38959">
        <ele>162</ele>
        <time>2013-11-24T10:55:57Z</time>
      </trkpt>
      <trkpt lat="43.22422" lon="5.38954">
        <ele>164</ele>
        <time>2013-11-24T10:56:07Z</time>
      </trkpt>
      <trkpt lat="43.22421" lon="5.38951">
        <ele>167</ele>
        <time>2013-11-24T10:56:16Z</time>
      </trkpt>
      <trkpt lat="43.2242" lon="5.38948">
        <ele>169</ele>
        <time>2013-11-24T10:56:28Z</time>
      </trkpt>
      <trkpt lat="43.22416" lon="5.38948">
        <ele>171</ele>
        <time>2013-11-24T10:56:38Z</time>
      </trkpt>
      <trkpt lat="43.22414" lon="5.38943">
        <ele>172</ele>
        <time>2013-11-24T10:56:47Z</time>
      </trkpt>
      <trkpt lat="43.22409" lon="5.3894">
        <ele>175</ele>
        <time>2013-11-24T10:56:57Z</time>
      </trkpt>
      <trkpt lat="43.22403" lon="5.38938">
        <ele>175</ele>
        <time>2013-11-24T10:57:06Z</time>
      </trkpt>
      <trkpt lat="43.22396" lon="5.38937">
        <ele>176</ele>
        <time>2013-11-24T10:57:16Z</time>
      </trkpt>
      <trkpt lat="43.22392" lon="5.38931">
        <ele>176</ele>
        <time>2013-11-24T10:57:25Z</time>
      </trkpt>
      <trkpt lat="43.22385" lon="5.38923">
        <ele>176</ele>
        <time>2013-11-24T10:57:34Z</time>
      </trkpt>
      <trkpt lat="43.22377" lon="5.38919">
        <ele>176</ele>
        <time>2013-11-24T10:57:44Z</time>
      </trkpt>
      <trkpt lat="43.22368" lon="5.38918">
        <ele>176</ele>
        <time>2013-11-24T10:57:54Z</time>
      </trkpt>
      <trkpt lat="43.22359" lon="5.38914">
        <ele>176</ele>
        <time>2013-11-24T10:58:03Z</time>
      </trkpt>
      <trkpt lat="43.2235" lon="5.38913">
        <ele>176</ele>
        <time>2013-11-24T10:58:12Z</time>
      </trkpt>
      <trkpt lat="43.22343" lon="5.38915">
        <ele>176</ele>
        <time>2013-11-24T10:58:22Z</time>
      </trkpt>
      <trkpt lat="43.22338" lon="5.38922">
        <ele>176</ele>
        <time>2013-11-24T10:58:31Z</time>
      </trkpt>
      <trkpt lat="43.2233" lon="5.38928">
        <ele>176</ele>
        <time>2013-11-24T10:58:40Z</time>
      </trkpt>
      <trkpt lat="43.22322" lon="5.38935">
        <ele>176</ele>
        <time>2013-11-24T10:58:49Z</time>
      </trkpt>
      <trkpt lat="43.22315" lon="5.38945">
        <ele>176</ele>
        <time>2013-11-24T10:58:58Z</time>
      </trkpt>
      <trkpt lat="43.22305" lon="5.38953">
        <ele>176</ele>
        <time>2013-11-24T10:59:08Z</time>
      </trkpt>
      <trkpt lat="43.22296" lon="5.38956">
        <ele>176</ele>
        <time>2013-11-24T10:59:18Z</time>
      </trkpt>
      <trkpt lat="43.2229" lon="5.38962">
        <ele>176</ele>
        <time>2013-11-24T10:59:27Z</time>
      </trkpt>
      <trkpt lat="43.22282" lon="5.38961">
        <ele>176</ele>
        <time>2013-11-24T10:59:37Z</time>
      </trkpt>
      <trkpt lat="43.22274" lon="5.38963">
        <ele>176</ele>
        <time>2013-11-24T10:59:46Z</time>
      </trkpt>
      <trkpt lat="43.22266" lon="5.38958">
        <ele>175</ele>
        <time>2013-11-24T10:59:56Z</time>
      </trkpt>
      <trkpt lat="43.22258" lon="5.38956">
        <ele>175</ele>
        <time>2013-11-24T11:00:06Z</time>
      </trkpt>
      <trkpt lat="43.22255" lon="5.3895">
        <ele>175</ele>
        <time>2013-11-24T11:00:15Z</time>
      </trkpt>
      <trkpt lat="43.22248" lon="5.38951">
        <ele>177</ele>
        <time>2013-11-24T11:00:25Z</time>
      </trkpt>
      <trkpt lat="43.22242" lon="5.3895">
        <ele>179</ele>
        <time>2013-11-24T11:00:35Z</time>
      </trkpt>
      <trkpt lat="43.22236" lon="5.38954">
        <ele>182</ele>
        <time>2013-11-24T11:00:46Z</time>
      </trkpt>
      <trkpt lat="43.22232" lon="5.38955">
        <ele>183</ele>
        <time>2013-11-24T11:00:55Z</time>
      </trkpt>
      <trkpt lat="43.22228" lon="5.38953">
        <ele>184</ele>
        <time>2013-11-24T11:01:06Z</time>
      </trkpt>
      <trkpt lat="43.22224" lon="5.3896">
        <ele>187</ele>
        <time>2013-11-24T11:01:16Z</time>
      </trkpt>
      <trkpt lat="43.22221" lon="5.38963">
        <ele>188</ele>
        <time>2013-11-24T11:01:25Z</time>
      </trkpt>
      <trkpt lat="43.22216" lon="5.38963">
        <ele>189</ele>
        <time>2013-11-24T11:01:34Z</time>
      </trkpt>
      <trkpt lat="43.22212" lon="5.38961">
        <ele>191</ele>
        <time>2013-11-24T11:01:44Z</time>
      </trkpt>
      <trkpt lat="43.22209" lon="5.3896">
        <ele>193</ele>
        <time>2013-11-24T11:01:54Z</time>
      </trkpt>
      <trkpt lat="43.22203" lon="5.38957">
        <ele>194</ele>
        <time>2013-11-24T11:02:06Z</time>
      </trkpt>
      <trkpt lat="43.22197" lon="5.38958">
        <ele>196</ele>
        <time>2013-11-24T11:02:17Z</time>
      </trkpt>
      <trkpt lat="43.22194" lon="5.38958">
        <ele>197</ele>
        <time>2013-11-24T11:02:26Z</time>
      </trkpt>
      <trkpt lat="43.22191" lon="5.3896">
        <ele>197</ele>
        <time>2013-11-24T11:02:35Z</time>
      </trkpt>
      <trkpt lat="43.22189" lon="5.3896">
        <ele>198</ele>
        <time>2013-11-24T11:02:47Z</time>
      </trkpt>
      <trkpt lat="43.22187" lon="5.38959">
        <ele>202</ele>
        <time>2013-11-24T11:02:59Z</time>
      </trkpt>
      <trkpt lat="43.22183" lon="5.38962">
        <ele>203</ele>
        <time>2013-11-24T11:03:08Z</time>
      </trkpt>
      <trkpt lat="43.22179" lon="5.38961">
        <ele>204</ele>
        <time>2013-11-24T11:03:20Z</time>
      </trkpt>
      <trkpt lat="43.22174" lon="5.38959">
        <ele>206</ele>
        <time>2013-11-24T11:03:34Z</time>
      </trkpt>
      <trkpt lat="43.22171" lon="5.38961">
        <ele>207</ele>
        <time>2013-11-24T11:03:47Z</time>
      </trkpt>
      <trkpt lat="43.22171" lon="5.38961">
        <ele>208</ele>
        <time>2013-11-24T11:04:08Z</time>
      </trkpt>
      <trkpt lat="43.22169" lon="5.38961">
        <ele>208</ele>
        <time>2013-11-24T11:04:29Z</time>
      </trkpt>
      <trkpt lat="43.22169" lon="5.38961">
        <ele>208</ele>
        <time>2013-11-24T11:04:44Z</time>
      </trkpt>
      <trkpt lat="43.2217" lon="5.38963">
        <ele>208</ele>
        <time>2013-11-24T11:04:59Z</time>
      </trkpt>
      <trkpt lat="43.22171" lon="5.3896">
        <ele>208</ele>
        <time>2013-11-24T11:05:14Z</time>
      </trkpt>
      <trkpt lat="43.22174" lon="5.38963">
        <ele>209</ele>
        <time>2013-11-24T11:05:24Z</time>
      </trkpt>
      <trkpt lat="43.22174" lon="5.38965">
        <ele>213</ele>
        <time>2013-11-24T11:05:38Z</time>
      </trkpt>
      <trkpt lat="43.22173" lon="5.38966">
        <ele>212</ele>
        <time>2013-11-24T11:05:55Z</time>
      </trkpt>
      <trkpt lat="43.2217" lon="5.38971">
        <ele>214</ele>
        <time>2013-11-24T11:06:07Z</time>
      </trkpt>
      <trkpt lat="43.22165" lon="5.38979">
        <ele>215</ele>
        <time>2013-11-24T11:06:18Z</time>
      </trkpt>
      <trkpt lat="43.22162" lon="5.38981">
        <ele>216</ele>
        <time>2013-11-24T11:06:28Z</time>
      </trkpt>
      <trkpt lat="43.22156" lon="5.3898">
        <ele>214</ele>
        <time>2013-11-24T11:06:38Z</time>
      </trkpt>
      <trkpt lat="43.22151" lon="5.38981">
        <ele>206</ele>
        <time>2013-11-24T11:06:48Z</time>
      </trkpt>
      <trkpt lat="43.22137" lon="5.38975">
        <ele>200</ele>
        <time>2013-11-24T11:06:59Z</time>
      </trkpt>
      <trkpt lat="43.22136" lon="5.38976">
        <ele>194</ele>
        <time>2013-11-24T11:07:08Z</time>
      </trkpt>
      <trkpt lat="43.22132" lon="5.38978">
        <ele>190</ele>
        <time>2013-11-24T11:07:19Z</time>
      </trkpt>
      <trkpt lat="43.22129" lon="5.3898">
        <ele>190</ele>
        <time>2013-11-24T11:07:31Z</time>
      </trkpt>
      <trkpt lat="43.22126" lon="5.38981">
        <ele>190</ele>
        <time>2013-11-24T11:07:43Z</time>
      </trkpt>
      <trkpt lat="43.22122" lon="5.38985">
        <ele>190</ele>
        <time>2013-11-24T11:07:52Z</time>
      </trkpt>
      <trkpt lat="43.22119" lon="5.38983">
        <ele>190</ele>
        <time>2013-11-24T11:08:02Z</time>
      </trkpt>
      <trkpt lat="43.22116" lon="5.38986">
        <ele>190</ele>
        <time>2013-11-24T11:08:12Z</time>
      </trkpt>
      <trkpt lat="43.22113" lon="5.38993">
        <ele>190</ele>
        <time>2013-11-24T11:08:22Z</time>
      </trkpt>
      <trkpt lat="43.22107" lon="5.38997">
        <ele>188</ele>
        <time>2013-11-24T11:08:31Z</time>
      </trkpt>
      <trkpt lat="43.22104" lon="5.39001">
        <ele>188</ele>
        <time>2013-11-24T11:08:41Z</time>
      </trkpt>
      <trkpt lat="43.22105" lon="5.39005">
        <ele>188</ele>
        <time>2013-11-24T11:08:52Z</time>
      </trkpt>
      <trkpt lat="43.22106" lon="5.39008">
        <ele>189</ele>
        <time>2013-11-24T11:09:02Z</time>
      </trkpt>
      <trkpt lat="43.22105" lon="5.39012">
        <ele>191</ele>
        <time>2013-11-24T11:09:13Z</time>
      </trkpt>
      <trkpt lat="43.22108" lon="5.3902">
        <ele>196</ele>
        <time>2013-11-24T11:09:22Z</time>
      </trkpt>
      <trkpt lat="43.22118" lon="5.39032">
        <ele>206</ele>
        <time>2013-11-24T11:09:31Z</time>
      </trkpt>
      <trkpt lat="43.22122" lon="5.39039">
        <ele>232</ele>
        <time>2013-11-24T11:09:42Z</time>
      </trkpt>
      <trkpt lat="43.22125" lon="5.39043">
        <ele>247</ele>
        <time>2013-11-24T11:09:53Z</time>
      </trkpt>
      <trkpt lat="43.22118" lon="5.39045">
        <ele>250</ele>
        <time>2013-11-24T11:10:07Z</time>
      </trkpt>
      <trkpt lat="43.22124" lon="5.39051">
        <ele>253</ele>
        <time>2013-11-24T11:10:16Z</time>
      </trkpt>
      <trkpt lat="43.22118" lon="5.39052">
        <ele>255</ele>
        <time>2013-11-24T11:10:28Z</time>
      </trkpt>
      <trkpt lat="43.2212" lon="5.39057">
        <ele>258</ele>
        <time>2013-11-24T11:10:41Z</time>
      </trkpt>
      <trkpt lat="43.22122" lon="5.39061">
        <ele>262</ele>
        <time>2013-11-24T11:10:51Z</time>
      </trkpt>
      <trkpt lat="43.22126" lon="5.39067">
        <ele>262</ele>
        <time>2013-11-24T11:11:00Z</time>
      </trkpt>
      <trkpt lat="43.22128" lon="5.39072">
        <ele>262</ele>
        <time>2013-11-24T11:11:11Z</time>
      </trkpt>
      <trkpt lat="43.2212" lon="5.39076">
        <ele>263</ele>
        <time>2013-11-24T11:11:21Z</time>
      </trkpt>
      <trkpt lat="43.22119" lon="5.39079">
        <ele>267</ele>
        <time>2013-11-24T11:11:34Z</time>
      </trkpt>
      <trkpt lat="43.22116" lon="5.39083">
        <ele>267</ele>
        <time>2013-11-24T11:11:43Z</time>
      </trkpt>
      <trkpt lat="43.22112" lon="5.39084">
        <ele>268</ele>
        <time>2013-11-24T11:11:52Z</time>
      </trkpt>
      <trkpt lat="43.2211" lon="5.39085">
        <ele>270</ele>
        <time>2013-11-24T11:12:02Z</time>
      </trkpt>
      <trkpt lat="43.22106" lon="5.39087">
        <ele>270</ele>
        <time>2013-11-24T11:12:11Z</time>
      </trkpt>
      <trkpt lat="43.22104" lon="5.39085">
        <ele>274</ele>
        <time>2013-11-24T11:12:21Z</time>
      </trkpt>
      <trkpt lat="43.22101" lon="5.39086">
        <ele>276</ele>
        <time>2013-11-24T11:12:30Z</time>
      </trkpt>
      <trkpt lat="43.22097" lon="5.39088">
        <ele>277</ele>
        <time>2013-11-24T11:12:39Z</time>
      </trkpt>
      <trkpt lat="43.22094" lon="5.39094">
        <ele>279</ele>
        <time>2013-11-24T11:12:53Z</time>
      </trkpt>
      <trkpt lat="43.22094" lon="5.39098">
        <ele>287</ele>
        <time>2013-11-24T11:13:03Z</time>
      </trkpt>
      <trkpt lat="43.22094" lon="5.39103">
        <ele>297</ele>
        <time>2013-11-24T11:13:13Z</time>
      </trkpt>
      <trkpt lat="43.22087" lon="5.39103">
        <ele>301</ele>
        <time>2013-11-24T11:13:24Z</time>
      </trkpt>
      <trkpt lat="43.22087" lon="5.39108">
        <ele>301</ele>
        <time>2013-11-24T11:13:35Z</time>
      </trkpt>
      <trkpt lat="43.22084" lon="5.39111">
        <ele>301</ele>
        <time>2013-11-24T11:13:45Z</time>
      </trkpt>
      <trkpt lat="43.22083" lon="5.39116">
        <ele>298</ele>
        <time>2013-11-24T11:13:59Z</time>
      </trkpt>
      <trkpt lat="43.22085" lon="5.3912">
        <ele>297</ele>
        <time>2013-11-24T11:14:09Z</time>
      </trkpt>
      <trkpt lat="43.22081" lon="5.39125">
        <ele>297</ele>
        <time>2013-11-24T11:14:19Z</time>
      </trkpt>
      <trkpt lat="43.22082" lon="5.39129">
        <ele>297</ele>
        <time>2013-11-24T11:14:28Z</time>
      </trkpt>
      <trkpt lat="43.22079" lon="5.39134">
        <ele>299</ele>
        <time>2013-11-24T11:14:38Z</time>
      </trkpt>
      <trkpt lat="43.22079" lon="5.39139">
        <ele>301</ele>
        <time>2013-11-24T11:14:48Z</time>
      </trkpt>
      <trkpt lat="43.2208" lon="5.39143">
        <ele>301</ele>
        <time>2013-11-24T11:14:57Z</time>
      </trkpt>
      <trkpt lat="43.22077" lon="5.39151">
        <ele>301</ele>
        <time>2013-11-24T11:15:08Z</time>
      </trkpt>
      <trkpt lat="43.22073" lon="5.39158">
        <ele>301</ele>
        <time>2013-11-24T11:15:17Z</time>
      </trkpt>
      <trkpt lat="43.22069" lon="5.39166">
        <ele>301</ele>
        <time>2013-11-24T11:15:28Z</time>
      </trkpt>
      <trkpt lat="43.22063" lon="5.39169">
        <ele>301</ele>
        <time>2013-11-24T11:15:37Z</time>
      </trkpt>
      <trkpt lat="43.22058" lon="5.3917">
        <ele>301</ele>
        <time>2013-11-24T11:15:47Z</time>
      </trkpt>
      <trkpt lat="43.22053" lon="5.39173">
        <ele>301</ele>
        <time>2013-11-24T11:15:56Z</time>
      </trkpt>
      <trkpt lat="43.22049" lon="5.39173">
        <ele>304</ele>
        <time>2013-11-24T11:16:09Z</time>
      </trkpt>
      <trkpt lat="43.22048" lon="5.39173">
        <ele>305</ele>
        <time>2013-11-24T11:16:43Z</time>
      </trkpt>
      <trkpt lat="43.22048" lon="5.39175">
        <ele>305</ele>
        <time>2013-11-24T11:17:09Z</time>
      </trkpt>
      <trkpt lat="43.22048" lon="5.39175">
        <ele>305</ele>
        <time>2013-11-24T11:18:01Z</time>
      </trkpt>
      <trkpt lat="43.22049" lon="5.39177">
        <ele>306</ele>
        <time>2013-11-24T11:18:42Z</time>
      </trkpt>
      <trkpt lat="43.22049" lon="5.39175">
        <ele>309</ele>
        <time>2013-11-24T11:19:00Z</time>
      </trkpt>
      <trkpt lat="43.22047" lon="5.39175">
        <ele>309</ele>
        <time>2013-11-24T11:19:28Z</time>
      </trkpt>
      <trkpt lat="43.22046" lon="5.39176">
        <ele>309</ele>
        <time>2013-11-24T11:19:58Z</time>
      </trkpt>
      <trkpt lat="43.22047" lon="5.39175">
        <ele>309</ele>
        <time>2013-11-24T11:20:31Z</time>
      </trkpt>
      <trkpt lat="43.22049" lon="5.39176">
        <ele>309</ele>
        <time>2013-11-24T11:20:54Z</time>
      </trkpt>
      <trkpt lat="43.22049" lon="5.39173">
        <ele>309</ele>
        <time>2013-11-24T11:21:07Z</time>
      </trkpt>
      <trkpt lat="43.22048" lon="5.39175">
        <ele>309</ele>
        <time>2013-11-24T11:21:18Z</time>
      </trkpt>
      <trkpt lat="43.22048" lon="5.39173">
        <ele>309</ele>
        <time>2013-11-24T11:21:42Z</time>
      </trkpt>
      <trkpt lat="43.22047" lon="5.39172">
        <ele>309</ele>
        <time>2013-11-24T11:21:52Z</time>
      </trkpt>
      <trkpt lat="43.22044" lon="5.39173">
        <ele>309</ele>
        <time>2013-11-24T11:22:01Z</time>
      </trkpt>
      <trkpt lat="43.22042" lon="5.39178">
        <ele>309</ele>
        <time>2013-11-24T11:22:11Z</time>
      </trkpt>
      <trkpt lat="43.22038" lon="5.39178">
        <ele>310</ele>
        <time>2013-11-24T11:22:23Z</time>
      </trkpt>
      <trkpt lat="43.22034" lon="5.3918">
        <ele>313</ele>
        <time>2013-11-24T11:22:34Z</time>
      </trkpt>
      <trkpt lat="43.22027" lon="5.39182">
        <ele>314</ele>
        <time>2013-11-24T11:22:43Z</time>
      </trkpt>
      <trkpt lat="43.22018" lon="5.39187">
        <ele>314</ele>
        <time>2013-11-24T11:22:53Z</time>
      </trkpt>
      <trkpt lat="43.2201" lon="5.39185">
        <ele>314</ele>
        <time>2013-11-24T11:23:03Z</time>
      </trkpt>
      <trkpt lat="43.22004" lon="5.3918">
        <ele>314</ele>
        <time>2013-11-24T11:23:12Z</time>
      </trkpt>
      <trkpt lat="43.21999" lon="5.39175">
        <ele>315</ele>
        <time>2013-11-24T11:23:21Z</time>
      </trkpt>
      <trkpt lat="43.21993" lon="5.39171">
        <ele>316</ele>
        <time>2013-11-24T11:23:30Z</time>
      </trkpt>
      <trkpt lat="43.21988" lon="5.39165">
        <ele>317</ele>
        <time>2013-11-24T11:23:39Z</time>
      </trkpt>
      <trkpt lat="43.21984" lon="5.39156">
        <ele>319</ele>
        <time>2013-11-24T11:23:49Z</time>
      </trkpt>
      <trkpt lat="43.2198" lon="5.39149">
        <ele>320</ele>
        <time>2013-11-24T11:23:58Z</time>
      </trkpt>
      <trkpt lat="43.21973" lon="5.39148">
        <ele>322</ele>
        <time>2013-11-24T11:24:08Z</time>
      </trkpt>
      <trkpt lat="43.21968" lon="5.39143">
        <ele>324</ele>
        <time>2013-11-24T11:24:17Z</time>
      </trkpt>
      <trkpt lat="43.21962" lon="5.39141">
        <ele>324</ele>
        <time>2013-11-24T11:24:27Z</time>
      </trkpt>
      <trkpt lat="43.21955" lon="5.39142">
        <ele>325</ele>
        <time>2013-11-24T11:24:37Z</time>
      </trkpt>
      <trkpt lat="43.21949" lon="5.39144">
        <ele>327</ele>
        <time>2013-11-24T11:24:47Z</time>
      </trkpt>
      <trkpt lat="43.21944" lon="5.3915">
        <ele>329</ele>
        <time>2013-11-24T11:24:56Z</time>
      </trkpt>
      <trkpt lat="43.21936" lon="5.3915">
        <ele>330</ele>
        <time>2013-11-24T11:25:07Z</time>
      </trkpt>
      <trkpt lat="43.21932" lon="5.39153">
        <ele>331</ele>
        <time>2013-11-24T11:25:16Z</time>
      </trkpt>
      <trkpt lat="43.21928" lon="5.39156">
        <ele>332</ele>
        <time>2013-11-24T11:25:27Z</time>
      </trkpt>
      <trkpt lat="43.21923" lon="5.39163">
        <ele>333</ele>
        <time>2013-11-24T11:25:37Z</time>
      </trkpt>
      <trkpt lat="43.21917" lon="5.39169">
        <ele>335</ele>
        <time>2013-11-24T11:25:47Z</time>
      </trkpt>
      <trkpt lat="43.2191" lon="5.3917">
        <ele>337</ele>
        <time>2013-11-24T11:25:58Z</time>
      </trkpt>
      <trkpt lat="43.21905" lon="5.39177">
        <ele>340</ele>
        <time>2013-11-24T11:26:07Z</time>
      </trkpt>
      <trkpt lat="43.21898" lon="5.39181">
        <ele>340</ele>
        <time>2013-11-24T11:26:18Z</time>
      </trkpt>
      <trkpt lat="43.21893" lon="5.39184">
        <ele>341</ele>
        <time>2013-11-24T11:26:27Z</time>
      </trkpt>
      <trkpt lat="43.21888" lon="5.39187">
        <ele>342</ele>
        <time>2013-11-24T11:26:36Z</time>
      </trkpt>
      <trkpt lat="43.21883" lon="5.39183">
        <ele>344</ele>
        <time>2013-11-24T11:26:48Z</time>
      </trkpt>
      <trkpt lat="43.2188" lon="5.39175">
        <ele>346</ele>
        <time>2013-11-24T11:26:58Z</time>
      </trkpt>
      <trkpt lat="43.21877" lon="5.3917">
        <ele>348</ele>
        <time>2013-11-24T11:27:07Z</time>
      </trkpt>
      <trkpt lat="43.21871" lon="5.39164">
        <ele>350</ele>
        <time>2013-11-24T11:27:17Z</time>
      </trkpt>
      <trkpt lat="43.21867" lon="5.39158">
        <ele>352</ele>
        <time>2013-11-24T11:27:27Z</time>
      </trkpt>
      <trkpt lat="43.21865" lon="5.39151">
        <ele>353</ele>
        <time>2013-11-24T11:27:36Z</time>
      </trkpt>
      <trkpt lat="43.21863" lon="5.39146">
        <ele>354</ele>
        <time>2013-11-24T11:27:45Z</time>
      </trkpt>
      <trkpt lat="43.21861" lon="5.39139">
        <ele>355</ele>
        <time>2013-11-24T11:27:54Z</time>
      </trkpt>
      <trkpt lat="43.21858" lon="5.39131">
        <ele>356</ele>
        <time>2013-11-24T11:28:03Z</time>
      </trkpt>
      <trkpt lat="43.21853" lon="5.39124">
        <ele>360</ele>
        <time>2013-11-24T11:28:14Z</time>
      </trkpt>
      <trkpt lat="43.21848" lon="5.39116">
        <ele>362</ele>
        <time>2013-11-24T11:28:24Z</time>
      </trkpt>
      <trkpt lat="43.21842" lon="5.39109">
        <ele>364</ele>
        <time>2013-11-24T11:28:34Z</time>
      </trkpt>
      <trkpt lat="43.21836" lon="5.39101">
        <ele>365</ele>
        <time>2013-11-24T11:28:44Z</time>
      </trkpt>
      <trkpt lat="43.2183" lon="5.39097">
        <ele>366</ele>
        <time>2013-11-24T11:28:59Z</time>
      </trkpt>
      <trkpt lat="43.2183" lon="5.39097">
        <ele>366</ele>
        <time>2013-11-24T11:29:13Z</time>
      </trkpt>
      <trkpt lat="43.21828" lon="5.39096">
        <ele>366</ele>
        <time>2013-11-24T11:29:38Z</time>
      </trkpt>
      <trkpt lat="43.21819" lon="5.39095">
        <ele>366</ele>
        <time>2013-11-24T11:29:48Z</time>
      </trkpt>
      <trkpt lat="43.21811" lon="5.39092">
        <ele>366</ele>
        <time>2013-11-24T11:29:57Z</time>
      </trkpt>
      <trkpt lat="43.21802" lon="5.39088">
        <ele>366</ele>
        <time>2013-11-24T11:30:06Z</time>
      </trkpt>
      <trkpt lat="43.21793" lon="5.39084">
        <ele>366</ele>
        <time>2013-11-24T11:30:16Z</time>
      </trkpt>
      <trkpt lat="43.21787" lon="5.39083">
        <ele>366</ele>
        <time>2013-11-24T11:30:25Z</time>
      </trkpt>
      <trkpt lat="43.21781" lon="5.39072">
        <ele>366</ele>
        <time>2013-11-24T11:30:35Z</time>
      </trkpt>
      <trkpt lat="43.21778" lon="5.39063">
        <ele>366</ele>
        <time>2013-11-24T11:30:45Z</time>
      </trkpt>
      <trkpt lat="43.21769" lon="5.39057">
        <ele>366</ele>
        <time>2013-11-24T11:30:54Z</time>
      </trkpt>
      <trkpt lat="43.21763" lon="5.39048">
        <ele>366</ele>
        <time>2013-11-24T11:31:04Z</time>
      </trkpt>
      <trkpt lat="43.21755" lon="5.39037">
        <ele>366</ele>
        <time>2013-11-24T11:31:13Z</time>
      </trkpt>
      <trkpt lat="43.21746" lon="5.39032">
        <ele>366</ele>
        <time>2013-11-24T11:31:22Z</time>
      </trkpt>
      <trkpt lat="43.2174" lon="5.39025">
        <ele>366</ele>
        <time>2013-11-24T11:31:32Z</time>
      </trkpt>
      <trkpt lat="43.21732" lon="5.39024">
        <ele>366</ele>
        <time>2013-11-24T11:31:42Z</time>
      </trkpt>
      <trkpt lat="43.21725" lon="5.39026">
        <ele>365</ele>
        <time>2013-11-24T11:31:51Z</time>
      </trkpt>
      <trkpt lat="43.21717" lon="5.39031">
        <ele>364</ele>
        <time>2013-11-24T11:32:01Z</time>
      </trkpt>
      <trkpt lat="43.21709" lon="5.39036">
        <ele>363</ele>
        <time>2013-11-24T11:32:10Z</time>
      </trkpt>
      <trkpt lat="43.21701" lon="5.3904">
        <ele>362</ele>
        <time>2013-11-24T11:32:19Z</time>
      </trkpt>
      <trkpt lat="43.21692" lon="5.39039">
        <ele>361</ele>
        <time>2013-11-24T11:32:28Z</time>
      </trkpt>
      <trkpt lat="43.2168" lon="5.39041">
        <ele>359</ele>
        <time>2013-11-24T11:32:38Z</time>
      </trkpt>
      <trkpt lat="43.21669" lon="5.39041">
        <ele>359</ele>
        <time>2013-11-24T11:32:47Z</time>
      </trkpt>
      <trkpt lat="43.21659" lon="5.39041">
        <ele>358</ele>
        <time>2013-11-24T11:32:56Z</time>
      </trkpt>
      <trkpt lat="43.2165" lon="5.39033">
        <ele>356</ele>
        <time>2013-11-24T11:33:05Z</time>
      </trkpt>
      <trkpt lat="43.2164" lon="5.3903">
        <ele>356</ele>
        <time>2013-11-24T11:33:14Z</time>
      </trkpt>
      <trkpt lat="43.21631" lon="5.39028">
        <ele>355</ele>
        <time>2013-11-24T11:33:24Z</time>
      </trkpt>
      <trkpt lat="43.21627" lon="5.39026">
        <ele>354</ele>
        <time>2013-11-24T11:33:37Z</time>
      </trkpt>
      <trkpt lat="43.21629" lon="5.39025">
        <ele>354</ele>
        <time>2013-11-24T11:33:46Z</time>
      </trkpt>
      <trkpt lat="43.21629" lon="5.39027">
        <ele>354</ele>
        <time>2013-11-24T11:35:11Z</time>
      </trkpt>
      <trkpt lat="43.21627" lon="5.39026">
        <ele>354</ele>
        <time>2013-11-24T11:35:33Z</time>
      </trkpt>
      <trkpt lat="43.21628" lon="5.39023">
        <ele>354</ele>
        <time>2013-11-24T11:35:43Z</time>
      </trkpt>
      <trkpt lat="43.21627" lon="5.39023">
        <ele>353</ele>
        <time>2013-11-24T11:35:55Z</time>
      </trkpt>
      <trkpt lat="43.21618" lon="5.39019">
        <ele>351</ele>
        <time>2013-11-24T11:36:05Z</time>
      </trkpt>
      <trkpt lat="43.21616" lon="5.39015">
        <ele>349</ele>
        <time>2013-11-24T11:36:14Z</time>
      </trkpt>
      <trkpt lat="43.21611" lon="5.39013">
        <ele>347</ele>
        <time>2013-11-24T11:36:24Z</time>
      </trkpt>
      <trkpt lat="43.21602" lon="5.3901">
        <ele>346</ele>
        <time>2013-11-24T11:36:33Z</time>
      </trkpt>
      <trkpt lat="43.21596" lon="5.39007">
        <ele>346</ele>
        <time>2013-11-24T11:36:42Z</time>
      </trkpt>
      <trkpt lat="43.2159" lon="5.39003">
        <ele>345</ele>
        <time>2013-11-24T11:36:52Z</time>
      </trkpt>
      <trkpt lat="43.21585" lon="5.38998">
        <ele>343</ele>
        <time>2013-11-24T11:37:02Z</time>
      </trkpt>
      <trkpt lat="43.2158" lon="5.38988">
        <ele>343</ele>
        <time>2013-11-24T11:37:11Z</time>
      </trkpt>
      <trkpt lat="43.21574" lon="5.38981">
        <ele>343</ele>
        <time>2013-11-24T11:37:20Z</time>
      </trkpt>
      <trkpt lat="43.2157" lon="5.38972">
        <ele>341</ele>
        <time>2013-11-24T11:37:29Z</time>
      </trkpt>
      <trkpt lat="43.21567" lon="5.38963">
        <ele>341</ele>
        <time>2013-11-24T11:37:38Z</time>
      </trkpt>
      <trkpt lat="43.21566" lon="5.38954">
        <ele>341</ele>
        <time>2013-11-24T11:37:47Z</time>
      </trkpt>
      <trkpt lat="43.21565" lon="5.38942">
        <ele>340</ele>
        <time>2013-11-24T11:37:56Z</time>
      </trkpt>
      <trkpt lat="43.21563" lon="5.38928">
        <ele>339</ele>
        <time>2013-11-24T11:38:06Z</time>
      </trkpt>
      <trkpt lat="43.21555" lon="5.38917">
        <ele>338</ele>
        <time>2013-11-24T11:38:16Z</time>
      </trkpt>
      <trkpt lat="43.21549" lon="5.38907">
        <ele>337</ele>
        <time>2013-11-24T11:38:25Z</time>
      </trkpt>
      <trkpt lat="43.21547" lon="5.38891">
        <ele>336</ele>
        <time>2013-11-24T11:38:34Z</time>
      </trkpt>
      <trkpt lat="43.21546" lon="5.38879">
        <ele>335</ele>
        <time>2013-11-24T11:38:44Z</time>
      </trkpt>
      <trkpt lat="43.21544" lon="5.38866">
        <ele>334</ele>
        <time>2013-11-24T11:38:54Z</time>
      </trkpt>
      <trkpt lat="43.21545" lon="5.38852">
        <ele>333</ele>
        <time>2013-11-24T11:39:03Z</time>
      </trkpt>
      <trkpt lat="43.21548" lon="5.38848">
        <ele>333</ele>
        <time>2013-11-24T11:39:13Z</time>
      </trkpt>
      <trkpt lat="43.21549" lon="5.38851">
        <ele>333</ele>
        <time>2013-11-24T11:39:26Z</time>
      </trkpt>
      <trkpt lat="43.21549" lon="5.38849">
        <ele>333</ele>
        <time>2013-11-24T11:39:43Z</time>
      </trkpt>
      <trkpt lat="43.21548" lon="5.38849">
        <ele>332</ele>
        <time>2013-11-24T11:39:54Z</time>
      </trkpt>
      <trkpt lat="43.21547" lon="5.38849">
        <ele>332</ele>
        <time>2013-11-24T11:40:03Z</time>
      </trkpt>
      <trkpt lat="43.21548" lon="5.38849">
        <ele>331</ele>
        <time>2013-11-24T11:40:16Z</time>
      </trkpt>
      <trkpt lat="43.21548" lon="5.38837">
        <ele>330</ele>
        <time>2013-11-24T11:40:25Z</time>
      </trkpt>
      <trkpt lat="43.21549" lon="5.38831">
        <ele>329</ele>
        <time>2013-11-24T11:40:34Z</time>
      </trkpt>
      <trkpt lat="43.21546" lon="5.38842">
        <ele>329</ele>
        <time>2013-11-24T11:40:43Z</time>
      </trkpt>
      <trkpt lat="43.21547" lon="5.38846">
        <ele>329</ele>
        <time>2013-11-24T11:40:54Z</time>
      </trkpt>
      <trkpt lat="43.21549" lon="5.38848">
        <ele>329</ele>
        <time>2013-11-24T11:41:03Z</time>
      </trkpt>
      <trkpt lat="43.21549" lon="5.38849">
        <ele>329</ele>
        <time>2013-11-24T11:41:16Z</time>
      </trkpt>
      <trkpt lat="43.21548" lon="5.38849">
        <ele>329</ele>
        <time>2013-11-24T11:41:29Z</time>
      </trkpt>
      <trkpt lat="43.21547" lon="5.38848">
        <ele>330</ele>
        <time>2013-11-24T11:41:44Z</time>
      </trkpt>
      <trkpt lat="43.21549" lon="5.38851">
        <ele>330</ele>
        <time>2013-11-24T11:41:54Z</time>
      </trkpt>
      <trkpt lat="43.21547" lon="5.38853">
        <ele>330</ele>
        <time>2013-11-24T11:42:07Z</time>
      </trkpt>
      <trkpt lat="43.21544" lon="5.38853">
        <ele>330</ele>
        <time>2013-11-24T11:42:16Z</time>
      </trkpt>
      <trkpt lat="43.2156" lon="5.38849">
        <ele>329</ele>
        <time>2013-11-24T11:42:30Z</time>
      </trkpt>
      <trkpt lat="43.21561" lon="5.38856">
        <ele>329</ele>
        <time>2013-11-24T11:42:39Z</time>
      </trkpt>
      <trkpt lat="43.2156" lon="5.38864">
        <ele>329</ele>
        <time>2013-11-24T11:42:49Z</time>
      </trkpt>
      <trkpt lat="43.2156" lon="5.38879">
        <ele>329</ele>
        <time>2013-11-24T11:42:59Z</time>
      </trkpt>
      <trkpt lat="43.21561" lon="5.38892">
        <ele>329</ele>
        <time>2013-11-24T11:43:09Z</time>
      </trkpt>
      <trkpt lat="43.21563" lon="5.38906">
        <ele>330</ele>
        <time>2013-11-24T11:43:19Z</time>
      </trkpt>
      <trkpt lat="43.21563" lon="5.38919">
        <ele>330</ele>
        <time>2013-11-24T11:43:30Z</time>
      </trkpt>
      <trkpt lat="43.21567" lon="5.38926">
        <ele>331</ele>
        <time>2013-11-24T11:43:41Z</time>
      </trkpt>
      <trkpt lat="43.21571" lon="5.38932">
        <ele>331</ele>
        <time>2013-11-24T11:43:50Z</time>
      </trkpt>
      <trkpt lat="43.21576" lon="5.38936">
        <ele>330</ele>
        <time>2013-11-24T11:43:59Z</time>
      </trkpt>
      <trkpt lat="43.21578" lon="5.38951">
        <ele>329</ele>
        <time>2013-11-24T11:44:10Z</time>
      </trkpt>
      <trkpt lat="43.21581" lon="5.38961">
        <ele>328</ele>
        <time>2013-11-24T11:44:19Z</time>
      </trkpt>
      <trkpt lat="43.21587" lon="5.38966">
        <ele>328</ele>
        <time>2013-11-24T11:44:30Z</time>
      </trkpt>
      <trkpt lat="43.21592" lon="5.38961">
        <ele>326</ele>
        <time>2013-11-24T11:44:41Z</time>
      </trkpt>
      <trkpt lat="43.21596" lon="5.3896">
        <ele>325</ele>
        <time>2013-11-24T11:44:53Z</time>
      </trkpt>
      <trkpt lat="43.21594" lon="5.38954">
        <ele>325</ele>
        <time>2013-11-24T11:45:02Z</time>
      </trkpt>
      <trkpt lat="43.21596" lon="5.3895">
        <ele>323</ele>
        <time>2013-11-24T11:45:12Z</time>
      </trkpt>
      <trkpt lat="43.21598" lon="5.38945">
        <ele>320</ele>
        <time>2013-11-24T11:45:21Z</time>
      </trkpt>
      <trkpt lat="43.21599" lon="5.38933">
        <ele>319</ele>
        <time>2013-11-24T11:45:31Z</time>
      </trkpt>
      <trkpt lat="43.21603" lon="5.38918">
        <ele>316</ele>
        <time>2013-11-24T11:45:40Z</time>
      </trkpt>
      <trkpt lat="43.21607" lon="5.38909">
        <ele>313</ele>
        <time>2013-11-24T11:45:50Z</time>
      </trkpt>
      <trkpt lat="43.21613" lon="5.38903">
        <ele>311</ele>
        <time>2013-11-24T11:46:00Z</time>
      </trkpt>
      <trkpt lat="43.21614" lon="5.38895">
        <ele>309</ele>
        <time>2013-11-24T11:46:10Z</time>
      </trkpt>
      <trkpt lat="43.21619" lon="5.38887">
        <ele>306</ele>
        <time>2013-11-24T11:46:20Z</time>
      </trkpt>
      <trkpt lat="43.21621" lon="5.38878">
        <ele>304</ele>
        <time>2013-11-24T11:46:29Z</time>
      </trkpt>
      <trkpt lat="43.2162" lon="5.38868">
        <ele>302</ele>
        <time>2013-11-24T11:46:39Z</time>
      </trkpt>
      <trkpt lat="43.21624" lon="5.38861">
        <ele>300</ele>
        <time>2013-11-24T11:46:49Z</time>
      </trkpt>
      <trkpt lat="43.21634" lon="5.38846">
        <ele>296</ele>
        <time>2013-11-24T11:46:59Z</time>
      </trkpt>
      <trkpt lat="43.2163" lon="5.38833">
        <ele>295</ele>
        <time>2013-11-24T11:47:09Z</time>
      </trkpt>
      <trkpt lat="43.21629" lon="5.38826">
        <ele>291</ele>
        <time>2013-11-24T11:47:21Z</time>
      </trkpt>
      <trkpt lat="43.2163" lon="5.38821">
        <ele>289</ele>
        <time>2013-11-24T11:47:30Z</time>
      </trkpt>
      <trkpt lat="43.2163" lon="5.38817">
        <ele>285</ele>
        <time>2013-11-24T11:47:39Z</time>
      </trkpt>
      <trkpt lat="43.21627" lon="5.38808">
        <ele>280</ele>
        <time>2013-11-24T11:47:50Z</time>
      </trkpt>
      <trkpt lat="43.21625" lon="5.38798">
        <ele>277</ele>
        <time>2013-11-24T11:47:59Z</time>
      </trkpt>
      <trkpt lat="43.21626" lon="5.38782">
        <ele>273</ele>
        <time>2013-11-24T11:48:10Z</time>
      </trkpt>
      <trkpt lat="43.21623" lon="5.38769">
        <ele>271</ele>
        <time>2013-11-24T11:48:19Z</time>
      </trkpt>
      <trkpt lat="43.21619" lon="5.38753">
        <ele>271</ele>
        <time>2013-11-24T11:48:29Z</time>
      </trkpt>
      <trkpt lat="43.21617" lon="5.38741">
        <ele>271</ele>
        <time>2013-11-24T11:48:39Z</time>
      </trkpt>
      <trkpt lat="43.2161" lon="5.38733">
        <ele>268</ele>
        <time>2013-11-24T11:48:49Z</time>
      </trkpt>
      <trkpt lat="43.21607" lon="5.38716">
        <ele>265</ele>
        <time>2013-11-24T11:49:00Z</time>
      </trkpt>
      <trkpt lat="43.21614" lon="5.3871">
        <ele>260</ele>
        <time>2013-11-24T11:49:10Z</time>
      </trkpt>
      <trkpt lat="43.21621" lon="5.38704">
        <ele>258</ele>
        <time>2013-11-24T11:49:20Z</time>
      </trkpt>
      <trkpt lat="43.2162" lon="5.3869">
        <ele>251</ele>
        <time>2013-11-24T11:49:30Z</time>
      </trkpt>
      <trkpt lat="43.21622" lon="5.38676">
        <ele>250</ele>
        <time>2013-11-24T11:49:39Z</time>
      </trkpt>
      <trkpt lat="43.21619" lon="5.3866">
        <ele>247</ele>
        <time>2013-11-24T11:49:49Z</time>
      </trkpt>
      <trkpt lat="43.21621" lon="5.38645">
        <ele>245</ele>
        <time>2013-11-24T11:49:59Z</time>
      </trkpt>
      <trkpt lat="43.21616" lon="5.38626">
        <ele>245</ele>
        <time>2013-11-24T11:50:09Z</time>
      </trkpt>
      <trkpt lat="43.21609" lon="5.3861">
        <ele>245</ele>
        <time>2013-11-24T11:50:19Z</time>
      </trkpt>
      <trkpt lat="43.21613" lon="5.38593">
        <ele>245</ele>
        <time>2013-11-24T11:50:29Z</time>
      </trkpt>
      <trkpt lat="43.21618" lon="5.38577">
        <ele>245</ele>
        <time>2013-11-24T11:50:39Z</time>
      </trkpt>
      <trkpt lat="43.21621" lon="5.38564">
        <ele>241</ele>
        <time>2013-11-24T11:50:50Z</time>
      </trkpt>
      <trkpt lat="43.21626" lon="5.3855">
        <ele>234</ele>
        <time>2013-11-24T11:50:59Z</time>
      </trkpt>
      <trkpt lat="43.21622" lon="5.38531">
        <ele>233</ele>
        <time>2013-11-24T11:51:09Z</time>
      </trkpt>
      <trkpt lat="43.21621" lon="5.38512">
        <ele>233</ele>
        <time>2013-11-24T11:51:19Z</time>
      </trkpt>
      <trkpt lat="43.21624" lon="5.38493">
        <ele>235</ele>
        <time>2013-11-24T11:51:29Z</time>
      </trkpt>
      <trkpt lat="43.21629" lon="5.38474">
        <ele>235</ele>
        <time>2013-11-24T11:51:39Z</time>
      </trkpt>
      <trkpt lat="43.21632" lon="5.38456">
        <ele>235</ele>
        <time>2013-11-24T11:51:49Z</time>
      </trkpt>
      <trkpt lat="43.2164" lon="5.38448">
        <ele>235</ele>
        <time>2013-11-24T11:51:59Z</time>
      </trkpt>
      <trkpt lat="43.21645" lon="5.38451">
        <ele>233</ele>
        <time>2013-11-24T11:52:11Z</time>
      </trkpt>
      <trkpt lat="43.21651" lon="5.38458">
        <ele>229</ele>
        <time>2013-11-24T11:52:21Z</time>
      </trkpt>
      <trkpt lat="43.21661" lon="5.38448">
        <ele>226</ele>
        <time>2013-11-24T11:52:30Z</time>
      </trkpt>
      <trkpt lat="43.21666" lon="5.38435">
        <ele>223</ele>
        <time>2013-11-24T11:52:39Z</time>
      </trkpt>
      <trkpt lat="43.21674" lon="5.38421">
        <ele>220</ele>
        <time>2013-11-24T11:52:50Z</time>
      </trkpt>
      <trkpt lat="43.2168" lon="5.38408">
        <ele>217</ele>
        <time>2013-11-24T11:52:59Z</time>
      </trkpt>
      <trkpt lat="43.21685" lon="5.38389">
        <ele>214</ele>
        <time>2013-11-24T11:53:10Z</time>
      </trkpt>
      <trkpt lat="43.21694" lon="5.38381">
        <ele>212</ele>
        <time>2013-11-24T11:53:19Z</time>
      </trkpt>
      <trkpt lat="43.21699" lon="5.3837">
        <ele>209</ele>
        <time>2013-11-24T11:53:29Z</time>
      </trkpt>
      <trkpt lat="43.21696" lon="5.38355">
        <ele>205</ele>
        <time>2013-11-24T11:53:40Z</time>
      </trkpt>
      <trkpt lat="43.21697" lon="5.38342">
        <ele>203</ele>
        <time>2013-11-24T11:53:49Z</time>
      </trkpt>
      <trkpt lat="43.21701" lon="5.38326">
        <ele>202</ele>
        <time>2013-11-24T11:53:59Z</time>
      </trkpt>
      <trkpt lat="43.21706" lon="5.38312">
        <ele>199</ele>
        <time>2013-11-24T11:54:10Z</time>
      </trkpt>
      <trkpt lat="43.21716" lon="5.38309">
        <ele>196</ele>
        <time>2013-11-24T11:54:19Z</time>
      </trkpt>
      <trkpt lat="43.21722" lon="5.38295">
        <ele>194</ele>
        <time>2013-11-24T11:54:30Z</time>
      </trkpt>
      <trkpt lat="43.21731" lon="5.38286">
        <ele>191</ele>
        <time>2013-11-24T11:54:39Z</time>
      </trkpt>
      <trkpt lat="43.21738" lon="5.38282">
        <ele>190</ele>
        <time>2013-11-24T11:54:49Z</time>
      </trkpt>
      <trkpt lat="43.21746" lon="5.38274">
        <ele>190</ele>
        <time>2013-11-24T11:54:58Z</time>
      </trkpt>
      <trkpt lat="43.21748" lon="5.3826">
        <ele>192</ele>
        <time>2013-11-24T11:55:09Z</time>
      </trkpt>
      <trkpt lat="43.21753" lon="5.38246">
        <ele>192</ele>
        <time>2013-11-24T11:55:19Z</time>
      </trkpt>
      <trkpt lat="43.21756" lon="5.3823">
        <ele>192</ele>
        <time>2013-11-24T11:55:29Z</time>
      </trkpt>
      <trkpt lat="43.21753" lon="5.38215">
        <ele>199</ele>
        <time>2013-11-24T11:55:39Z</time>
      </trkpt>
      <trkpt lat="43.21751" lon="5.38204">
        <ele>196</ele>
        <time>2013-11-24T11:55:49Z</time>
      </trkpt>
      <trkpt lat="43.21759" lon="5.38188">
        <ele>190</ele>
        <time>2013-11-24T11:56:00Z</time>
      </trkpt>
      <trkpt lat="43.21765" lon="5.38179">
        <ele>188</ele>
        <time>2013-11-24T11:56:09Z</time>
      </trkpt>
      <trkpt lat="43.21772" lon="5.38167">
        <ele>185</ele>
        <time>2013-11-24T11:56:18Z</time>
      </trkpt>
      <trkpt lat="43.21774" lon="5.38152">
        <ele>180</ele>
        <time>2013-11-24T11:56:27Z</time>
      </trkpt>
      <trkpt lat="43.21772" lon="5.38129">
        <ele>176</ele>
        <time>2013-11-24T11:56:37Z</time>
      </trkpt>
      <trkpt lat="43.21773" lon="5.3812">
        <ele>172</ele>
        <time>2013-11-24T11:56:46Z</time>
      </trkpt>
      <trkpt lat="43.21782" lon="5.38113">
        <ele>171</ele>
        <time>2013-11-24T11:56:56Z</time>
      </trkpt>
      <trkpt lat="43.21791" lon="5.38117">
        <ele>167</ele>
        <time>2013-11-24T11:57:05Z</time>
      </trkpt>
      <trkpt lat="43.21794" lon="5.38124">
        <ele>160</ele>
        <time>2013-11-24T11:57:14Z</time>
      </trkpt>
      <trkpt lat="43.21805" lon="5.38135">
        <ele>158</ele>
        <time>2013-11-24T11:57:25Z</time>
      </trkpt>
      <trkpt lat="43.21811" lon="5.3813">
        <ele>159</ele>
        <time>2013-11-24T11:57:35Z</time>
      </trkpt>
      <trkpt lat="43.21821" lon="5.38124">
        <ele>160</ele>
        <time>2013-11-24T11:57:45Z</time>
      </trkpt>
      <trkpt lat="43.21831" lon="5.38123">
        <ele>159</ele>
        <time>2013-11-24T11:57:54Z</time>
      </trkpt>
      <trkpt lat="43.2184" lon="5.38119">
        <ele>155</ele>
        <time>2013-11-24T11:58:04Z</time>
      </trkpt>
      <trkpt lat="43.21851" lon="5.38107">
        <ele>155</ele>
        <time>2013-11-24T11:58:14Z</time>
      </trkpt>
      <trkpt lat="43.21856" lon="5.38096">
        <ele>155</ele>
        <time>2013-11-24T11:58:24Z</time>
      </trkpt>
      <trkpt lat="43.21863" lon="5.38085">
        <ele>155</ele>
        <time>2013-11-24T11:58:34Z</time>
      </trkpt>
      <trkpt lat="43.21866" lon="5.38079">
        <ele>152</ele>
        <time>2013-11-24T11:58:45Z</time>
      </trkpt>
      <trkpt lat="43.2187" lon="5.38073">
        <ele>148</ele>
        <time>2013-11-24T11:58:54Z</time>
      </trkpt>
      <trkpt lat="43.21877" lon="5.38069">
        <ele>141</ele>
        <time>2013-11-24T11:59:04Z</time>
      </trkpt>
      <trkpt lat="43.21887" lon="5.38067">
        <ele>136</ele>
        <time>2013-11-24T11:59:15Z</time>
      </trkpt>
      <trkpt lat="43.21896" lon="5.38056">
        <ele>131</ele>
        <time>2013-11-24T11:59:25Z</time>
      </trkpt>
      <trkpt lat="43.21896" lon="5.38036">
        <ele>132</ele>
        <time>2013-11-24T11:59:35Z</time>
      </trkpt>
      <trkpt lat="43.21904" lon="5.38035">
        <ele>132</ele>
        <time>2013-11-24T11:59:44Z</time>
      </trkpt>
      <trkpt lat="43.21912" lon="5.3803">
        <ele>126</ele>
        <time>2013-11-24T11:59:54Z</time>
      </trkpt>
      <trkpt lat="43.21922" lon="5.38018">
        <ele>126</ele>
        <time>2013-11-24T12:00:04Z</time>
      </trkpt>
      <trkpt lat="43.2193" lon="5.38006">
        <ele>126</ele>
        <time>2013-11-24T12:00:15Z</time>
      </trkpt>
      <trkpt lat="43.21938" lon="5.37996">
        <ele>125</ele>
        <time>2013-11-24T12:00:25Z</time>
      </trkpt>
      <trkpt lat="43.21938" lon="5.37983">
        <ele>124</ele>
        <time>2013-11-24T12:00:34Z</time>
      </trkpt>
      <trkpt lat="43.21939" lon="5.37966">
        <ele>124</ele>
        <time>2013-11-24T12:00:44Z</time>
      </trkpt>
      <trkpt lat="43.21942" lon="5.37951">
        <ele>124</ele>
        <time>2013-11-24T12:00:54Z</time>
      </trkpt>
      <trkpt lat="43.21947" lon="5.37937">
        <ele>124</ele>
        <time>2013-11-24T12:01:03Z</time>
      </trkpt>
      <trkpt lat="43.21954" lon="5.37924">
        <ele>122</ele>
        <time>2013-11-24T12:01:12Z</time>
      </trkpt>
      <trkpt lat="43.21957" lon="5.37928">
        <ele>121</ele>
        <time>2013-11-24T12:01:22Z</time>
      </trkpt>
      <trkpt lat="43.21961" lon="5.37936">
        <ele>121</ele>
        <time>2013-11-24T12:01:32Z</time>
      </trkpt>
      <trkpt lat="43.21963" lon="5.37947">
        <ele>119</ele>
        <time>2013-11-24T12:01:42Z</time>
      </trkpt>
      <trkpt lat="43.21968" lon="5.37959">
        <ele>118</ele>
        <time>2013-11-24T12:01:52Z</time>
      </trkpt>
      <trkpt lat="43.21968" lon="5.3797">
        <ele>118</ele>
        <time>2013-11-24T12:02:02Z</time>
      </trkpt>
      <trkpt lat="43.21972" lon="5.37978">
        <ele>120</ele>
        <time>2013-11-24T12:02:12Z</time>
      </trkpt>
      <trkpt lat="43.21973" lon="5.37989">
        <ele>121</ele>
        <time>2013-11-24T12:02:21Z</time>
      </trkpt>
      <trkpt lat="43.21978" lon="5.37998">
        <ele>121</ele>
        <time>2013-11-24T12:02:31Z</time>
      </trkpt>
      <trkpt lat="43.21983" lon="5.38009">
        <ele>125</ele>
        <time>2013-11-24T12:02:41Z</time>
      </trkpt>
      <trkpt lat="43.2199" lon="5.38018">
        <ele>125</ele>
        <time>2013-11-24T12:02:51Z</time>
      </trkpt>
      <trkpt lat="43.21997" lon="5.38029">
        <ele>125</ele>
        <time>2013-11-24T12:03:01Z</time>
      </trkpt>
      <trkpt lat="43.22" lon="5.3804">
        <ele>124</ele>
        <time>2013-11-24T12:03:11Z</time>
      </trkpt>
      <trkpt lat="43.22005" lon="5.38047">
        <ele>123</ele>
        <time>2013-11-24T12:03:21Z</time>
      </trkpt>
      <trkpt lat="43.22009" lon="5.38056">
        <ele>123</ele>
        <time>2013-11-24T12:03:30Z</time>
      </trkpt>
      <trkpt lat="43.2201" lon="5.38069">
        <ele>123</ele>
        <time>2013-11-24T12:03:39Z</time>
      </trkpt>
      <trkpt lat="43.22015" lon="5.38079">
        <ele>123</ele>
        <time>2013-11-24T12:03:49Z</time>
      </trkpt>
      <trkpt lat="43.22021" lon="5.38087">
        <ele>123</ele>
        <time>2013-11-24T12:03:59Z</time>
      </trkpt>
      <trkpt lat="43.22028" lon="5.38097">
        <ele>124</ele>
        <time>2013-11-24T12:04:10Z</time>
      </trkpt>
      <trkpt lat="43.22031" lon="5.38107">
        <ele>125</ele>
        <time>2013-11-24T12:04:20Z</time>
      </trkpt>
      <trkpt lat="43.22034" lon="5.3812">
        <ele>128</ele>
        <time>2013-11-24T12:04:29Z</time>
      </trkpt>
      <trkpt lat="43.22034" lon="5.38135">
        <ele>132</ele>
        <time>2013-11-24T12:04:39Z</time>
      </trkpt>
      <trkpt lat="43.22038" lon="5.38143">
        <ele>133</ele>
        <time>2013-11-24T12:04:48Z</time>
      </trkpt>
      <trkpt lat="43.22043" lon="5.38153">
        <ele>133</ele>
        <time>2013-11-24T12:04:57Z</time>
      </trkpt>
      <trkpt lat="43.22044" lon="5.38165">
        <ele>133</ele>
        <time>2013-11-24T12:05:06Z</time>
      </trkpt>
      <trkpt lat="43.22049" lon="5.38175">
        <ele>133</ele>
        <time>2013-11-24T12:05:16Z</time>
      </trkpt>
      <trkpt lat="43.22055" lon="5.38182">
        <ele>134</ele>
        <time>2013-11-24T12:05:25Z</time>
      </trkpt>
      <trkpt lat="43.22061" lon="5.38191">
        <ele>138</ele>
        <time>2013-11-24T12:05:35Z</time>
      </trkpt>
      <trkpt lat="43.22067" lon="5.38201">
        <ele>140</ele>
        <time>2013-11-24T12:05:45Z</time>
      </trkpt>
      <trkpt lat="43.22073" lon="5.3821">
        <ele>144</ele>
        <time>2013-11-24T12:05:55Z</time>
      </trkpt>
      <trkpt lat="43.22074" lon="5.38217">
        <ele>145</ele>
        <time>2013-11-24T12:06:06Z</time>
      </trkpt>
      <trkpt lat="43.22078" lon="5.38227">
        <ele>147</ele>
        <time>2013-11-24T12:06:16Z</time>
      </trkpt>
      <trkpt lat="43.22079" lon="5.38237">
        <ele>147</ele>
        <time>2013-11-24T12:06:26Z</time>
      </trkpt>
      <trkpt lat="43.22079" lon="5.38251">
        <ele>148</ele>
        <time>2013-11-24T12:06:35Z</time>
      </trkpt>
      <trkpt lat="43.22084" lon="5.38259">
        <ele>148</ele>
        <time>2013-11-24T12:06:45Z</time>
      </trkpt>
      <trkpt lat="43.22088" lon="5.38266">
        <ele>148</ele>
        <time>2013-11-24T12:06:54Z</time>
      </trkpt>
      <trkpt lat="43.22096" lon="5.38272">
        <ele>148</ele>
        <time>2013-11-24T12:07:04Z</time>
      </trkpt>
      <trkpt lat="43.22099" lon="5.38279">
        <ele>148</ele>
        <time>2013-11-24T12:07:14Z</time>
      </trkpt>
      <trkpt lat="43.22102" lon="5.38286">
        <ele>148</ele>
        <time>2013-11-24T12:07:23Z</time>
      </trkpt>
      <trkpt lat="43.22103" lon="5.38295">
        <ele>148</ele>
        <time>2013-11-24T12:07:33Z</time>
      </trkpt>
      <trkpt lat="43.22106" lon="5.38303">
        <ele>148</ele>
        <time>2013-11-24T12:07:43Z</time>
      </trkpt>
      <trkpt lat="43.2211" lon="5.3831">
        <ele>149</ele>
        <time>2013-11-24T12:07:52Z</time>
      </trkpt>
      <trkpt lat="43.2211" lon="5.38322">
        <ele>156</ele>
        <time>2013-11-24T12:08:03Z</time>
      </trkpt>
      <trkpt lat="43.2211" lon="5.38325">
        <ele>157</ele>
        <time>2013-11-24T12:08:14Z</time>
      </trkpt>
      <trkpt lat="43.22105" lon="5.38332">
        <ele>165</ele>
        <time>2013-11-24T12:08:23Z</time>
      </trkpt>
      <trkpt lat="43.22097" lon="5.38338">
        <ele>174</ele>
        <time>2013-11-24T12:08:32Z</time>
      </trkpt>
      <trkpt lat="43.22094" lon="5.38345">
        <ele>180</ele>
        <time>2013-11-24T12:08:42Z</time>
      </trkpt>
      <trkpt lat="43.22094" lon="5.38352">
        <ele>180</ele>
        <time>2013-11-24T12:08:51Z</time>
      </trkpt>
      <trkpt lat="43.22091" lon="5.3836">
        <ele>174</ele>
        <time>2013-11-24T12:09:01Z</time>
      </trkpt>
      <trkpt lat="43.22094" lon="5.38364">
        <ele>172</ele>
        <time>2013-11-24T12:09:11Z</time>
      </trkpt>
      <trkpt lat="43.22097" lon="5.38368">
        <ele>172</ele>
        <time>2013-11-24T12:09:27Z</time>
      </trkpt>
      <trkpt lat="43.22097" lon="5.3837">
        <ele>172</ele>
        <time>2013-11-24T12:09:36Z</time>
      </trkpt>
      <trkpt lat="43.22097" lon="5.38372">
        <ele>172</ele>
        <time>2013-11-24T12:09:45Z</time>
      </trkpt>
      <trkpt lat="43.221" lon="5.38378">
        <ele>173</ele>
        <time>2013-11-24T12:09:58Z</time>
      </trkpt>
      <trkpt lat="43.22102" lon="5.38382">
        <ele>177</ele>
        <time>2013-11-24T12:10:08Z</time>
      </trkpt>
      <trkpt lat="43.22105" lon="5.38384">
        <ele>177</ele>
        <time>2013-11-24T12:10:19Z</time>
      </trkpt>
      <trkpt lat="43.22106" lon="5.3839">
        <ele>177</ele>
        <time>2013-11-24T12:10:28Z</time>
      </trkpt>
      <trkpt lat="43.22104" lon="5.38397">
        <ele>180</ele>
        <time>2013-11-24T12:10:37Z</time>
      </trkpt>
      <trkpt lat="43.22105" lon="5.38402">
        <ele>181</ele>
        <time>2013-11-24T12:10:47Z</time>
      </trkpt>
      <trkpt lat="43.22106" lon="5.38405">
        <ele>182</ele>
        <time>2013-11-24T12:11:05Z</time>
      </trkpt>
      <trkpt lat="43.22111" lon="5.38402">
        <ele>188</ele>
        <time>2013-11-24T12:11:14Z</time>
      </trkpt>
      <trkpt lat="43.22107" lon="5.38397">
        <ele>190</ele>
        <time>2013-11-24T12:11:24Z</time>
      </trkpt>
      <trkpt lat="43.22106" lon="5.384">
        <ele>190</ele>
        <time>2013-11-24T12:11:36Z</time>
      </trkpt>
      <trkpt lat="43.22107" lon="5.38401">
        <ele>190</ele>
        <time>2013-11-24T12:11:49Z</time>
      </trkpt>
      <trkpt lat="43.22108" lon="5.38404">
        <ele>190</ele>
        <time>2013-11-24T12:11:58Z</time>
      </trkpt>
      <trkpt lat="43.22109" lon="5.3841">
        <ele>190</ele>
        <time>2013-11-24T12:12:07Z</time>
      </trkpt>
      <trkpt lat="43.22109" lon="5.38417">
        <ele>190</ele>
        <time>2013-11-24T12:12:17Z</time>
      </trkpt>
      <trkpt lat="43.22103" lon="5.38424">
        <ele>192</ele>
        <time>2013-11-24T12:12:26Z</time>
      </trkpt>
      <trkpt lat="43.22102" lon="5.38431">
        <ele>193</ele>
        <time>2013-11-24T12:12:35Z</time>
      </trkpt>
      <trkpt lat="43.22102" lon="5.38437">
        <ele>196</ele>
        <time>2013-11-24T12:12:44Z</time>
      </trkpt>
      <trkpt lat="43.22103" lon="5.38446">
        <ele>196</ele>
        <time>2013-11-24T12:12:53Z</time>
      </trkpt>
      <trkpt lat="43.22104" lon="5.38452">
        <ele>196</ele>
        <time>2013-11-24T12:13:03Z</time>
      </trkpt>
      <trkpt lat="43.22108" lon="5.38454">
        <ele>196</ele>
        <time>2013-11-24T12:13:12Z</time>
      </trkpt>
      <trkpt lat="43.22111" lon="5.38458">
        <ele>197</ele>
        <time>2013-11-24T12:13:24Z</time>
      </trkpt>
      <trkpt lat="43.22115" lon="5.38462">
        <ele>197</ele>
        <time>2013-11-24T12:13:37Z</time>
      </trkpt>
      <trkpt lat="43.22118" lon="5.38461">
        <ele>202</ele>
        <time>2013-11-24T12:13:47Z</time>
      </trkpt>
      <trkpt lat="43.22121" lon="5.38461">
        <ele>203</ele>
        <time>2013-11-24T12:13:58Z</time>
      </trkpt>
      <trkpt lat="43.22121" lon="5.38464">
        <ele>210</ele>
        <time>2013-11-24T12:14:10Z</time>
      </trkpt>
      <trkpt lat="43.22126" lon="5.3846">
        <ele>212</ele>
        <time>2013-11-24T12:14:21Z</time>
      </trkpt>
      <trkpt lat="43.22128" lon="5.38452">
        <ele>212</ele>
        <time>2013-11-24T12:14:30Z</time>
      </trkpt>
      <trkpt lat="43.22129" lon="5.38455">
        <ele>210</ele>
        <time>2013-11-24T12:14:41Z</time>
      </trkpt>
      <trkpt lat="43.22129" lon="5.38455">
        <ele>209</ele>
        <time>2013-11-24T12:14:51Z</time>
      </trkpt>
      <trkpt lat="43.22129" lon="5.38448">
        <ele>209</ele>
        <time>2013-11-24T12:15:01Z</time>
      </trkpt>
      <trkpt lat="43.22128" lon="5.3845">
        <ele>209</ele>
        <time>2013-11-24T12:15:10Z</time>
      </trkpt>
      <trkpt lat="43.22131" lon="5.38447">
        <ele>209</ele>
        <time>2013-11-24T12:15:20Z</time>
      </trkpt>
      <trkpt lat="43.22136" lon="5.38449">
        <ele>209</ele>
        <time>2013-11-24T12:15:30Z</time>
      </trkpt>
      <trkpt lat="43.22141" lon="5.38447">
        <ele>209</ele>
        <time>2013-11-24T12:15:39Z</time>
      </trkpt>
      <trkpt lat="43.22147" lon="5.38443">
        <ele>211</ele>
        <time>2013-11-24T12:15:48Z</time>
      </trkpt>
      <trkpt lat="43.22151" lon="5.38442">
        <ele>215</ele>
        <time>2013-11-24T12:15:57Z</time>
      </trkpt>
      <trkpt lat="43.22155" lon="5.38443">
        <ele>216</ele>
        <time>2013-11-24T12:16:06Z</time>
      </trkpt>
      <trkpt lat="43.2216" lon="5.38443">
        <ele>216</ele>
        <time>2013-11-24T12:16:15Z</time>
      </trkpt>
      <trkpt lat="43.22165" lon="5.38439">
        <ele>219</ele>
        <time>2013-11-24T12:16:25Z</time>
      </trkpt>
      <trkpt lat="43.22169" lon="5.38435">
        <ele>219</ele>
        <time>2013-11-24T12:16:34Z</time>
      </trkpt>
      <trkpt lat="43.22173" lon="5.38432">
        <ele>219</ele>
        <time>2013-11-24T12:16:44Z</time>
      </trkpt>
      <trkpt lat="43.22176" lon="5.38427">
        <ele>219</ele>
        <time>2013-11-24T12:16:53Z</time>
      </trkpt>
      <trkpt lat="43.22179" lon="5.38417">
        <ele>219</ele>
        <time>2013-11-24T12:17:03Z</time>
      </trkpt>
      <trkpt lat="43.22183" lon="5.38412">
        <ele>219</ele>
        <time>2013-11-24T12:17:13Z</time>
      </trkpt>
      <trkpt lat="43.22186" lon="5.3841">
        <ele>220</ele>
        <time>2013-11-24T12:17:24Z</time>
      </trkpt>
      <trkpt lat="43.22187" lon="5.38411">
        <ele>221</ele>
        <time>2013-11-24T12:17:33Z</time>
      </trkpt>
      <trkpt lat="43.22189" lon="5.38412">
        <ele>221</ele>
        <time>2013-11-24T12:17:49Z</time>
      </trkpt>
      <trkpt lat="43.22193" lon="5.38409">
        <ele>221</ele>
        <time>2013-11-24T12:18:00Z</time>
      </trkpt>
      <trkpt lat="43.22194" lon="5.38411">
        <ele>222</ele>
        <time>2013-11-24T12:18:10Z</time>
      </trkpt>
      <trkpt lat="43.22195" lon="5.38414">
        <ele>228</ele>
        <time>2013-11-24T12:18:26Z</time>
      </trkpt>
      <trkpt lat="43.22197" lon="5.38416">
        <ele>230</ele>
        <time>2013-11-24T12:18:39Z</time>
      </trkpt>
      <trkpt lat="43.222" lon="5.38413">
        <ele>232</ele>
        <time>2013-11-24T12:18:53Z</time>
      </trkpt>
      <trkpt lat="43.22202" lon="5.3841">
        <ele>234</ele>
        <time>2013-11-24T12:19:02Z</time>
      </trkpt>
      <trkpt lat="43.22205" lon="5.38411">
        <ele>237</ele>
        <time>2013-11-24T12:19:13Z</time>
      </trkpt>
      <trkpt lat="43.22209" lon="5.38411">
        <ele>237</ele>
        <time>2013-11-24T12:19:24Z</time>
      </trkpt>
      <trkpt lat="43.2221" lon="5.38413">
        <ele>240</ele>
        <time>2013-11-24T12:19:35Z</time>
      </trkpt>
      <trkpt lat="43.22212" lon="5.38412">
        <ele>241</ele>
        <time>2013-11-24T12:19:46Z</time>
      </trkpt>
      <trkpt lat="43.22215" lon="5.38407">
        <ele>245</ele>
        <time>2013-11-24T12:20:01Z</time>
      </trkpt>
      <trkpt lat="43.22216" lon="5.38403">
        <ele>246</ele>
        <time>2013-11-24T12:20:12Z</time>
      </trkpt>
      <trkpt lat="43.22218" lon="5.38399">
        <ele>247</ele>
        <time>2013-11-24T12:20:23Z</time>
      </trkpt>
      <trkpt lat="43.22218" lon="5.38394">
        <ele>248</ele>
        <time>2013-11-24T12:20:32Z</time>
      </trkpt>
      <trkpt lat="43.22222" lon="5.38392">
        <ele>249</ele>
        <time>2013-11-24T12:20:42Z</time>
      </trkpt>
      <trkpt lat="43.22226" lon="5.38391">
        <ele>250</ele>
        <time>2013-11-24T12:20:51Z</time>
      </trkpt>
      <trkpt lat="43.22228" lon="5.38386">
        <ele>250</ele>
        <time>2013-11-24T12:21:00Z</time>
      </trkpt>
      <trkpt lat="43.22231" lon="5.38383">
        <ele>252</ele>
        <time>2013-11-24T12:21:12Z</time>
      </trkpt>
      <trkpt lat="43.22234" lon="5.38385">
        <ele>254</ele>
        <time>2013-11-24T12:21:23Z</time>
      </trkpt>
      <trkpt lat="43.22238" lon="5.38384">
        <ele>257</ele>
        <time>2013-11-24T12:21:39Z</time>
      </trkpt>
      <trkpt lat="43.2224" lon="5.38384">
        <ele>259</ele>
        <time>2013-11-24T12:21:50Z</time>
      </trkpt>
      <trkpt lat="43.22243" lon="5.38386">
        <ele>261</ele>
        <time>2013-11-24T12:22:00Z</time>
      </trkpt>
      <trkpt lat="43.22244" lon="5.3839">
        <ele>262</ele>
        <time>2013-11-24T12:22:09Z</time>
      </trkpt>
      <trkpt lat="43.22243" lon="5.38394">
        <ele>264</ele>
        <time>2013-11-24T12:22:27Z</time>
      </trkpt>
      <trkpt lat="43.2224" lon="5.38396">
        <ele>267</ele>
        <time>2013-11-24T12:22:36Z</time>
      </trkpt>
      <trkpt lat="43.22243" lon="5.384">
        <ele>267</ele>
        <time>2013-11-24T12:22:46Z</time>
      </trkpt>
      <trkpt lat="43.22246" lon="5.38402">
        <ele>267</ele>
        <time>2013-11-24T12:22:57Z</time>
      </trkpt>
      <trkpt lat="43.22247" lon="5.38403">
        <ele>267</ele>
        <time>2013-11-24T12:23:08Z</time>
      </trkpt>
      <trkpt lat="43.22249" lon="5.38411">
        <ele>268</ele>
        <time>2013-11-24T12:23:18Z</time>
      </trkpt>
      <trkpt lat="43.22249" lon="5.38407">
        <ele>269</ele>
        <time>2013-11-24T12:23:29Z</time>
      </trkpt>
      <trkpt lat="43.22251" lon="5.3841">
        <ele>271</ele>
        <time>2013-11-24T12:23:38Z</time>
      </trkpt>
      <trkpt lat="43.22252" lon="5.38411">
        <ele>274</ele>
        <time>2013-11-24T12:23:47Z</time>
      </trkpt>
      <trkpt lat="43.22254" lon="5.38411">
        <ele>276</ele>
        <time>2013-11-24T12:23:56Z</time>
      </trkpt>
      <trkpt lat="43.22256" lon="5.38414">
        <ele>276</ele>
        <time>2013-11-24T12:24:07Z</time>
      </trkpt>
      <trkpt lat="43.22257" lon="5.38418">
        <ele>276</ele>
        <time>2013-11-24T12:24:23Z</time>
      </trkpt>
      <trkpt lat="43.22259" lon="5.3842">
        <ele>279</ele>
        <time>2013-11-24T12:24:38Z</time>
      </trkpt>
      <trkpt lat="43.22259" lon="5.38424">
        <ele>281</ele>
        <time>2013-11-24T12:24:48Z</time>
      </trkpt>
      <trkpt lat="43.22261" lon="5.38427">
        <ele>283</ele>
        <time>2013-11-24T12:25:01Z</time>
      </trkpt>
      <trkpt lat="43.22263" lon="5.38426">
        <ele>285</ele>
        <time>2013-11-24T12:25:10Z</time>
      </trkpt>
      <trkpt lat="43.22266" lon="5.38423">
        <ele>288</ele>
        <time>2013-11-24T12:25:22Z</time>
      </trkpt>
      <trkpt lat="43.22268" lon="5.38425">
        <ele>289</ele>
        <time>2013-11-24T12:25:34Z</time>
      </trkpt>
      <trkpt lat="43.22267" lon="5.3843">
        <ele>290</ele>
        <time>2013-11-24T12:25:45Z</time>
      </trkpt>
      <trkpt lat="43.22266" lon="5.38433">
        <ele>292</ele>
        <time>2013-11-24T12:25:55Z</time>
      </trkpt>
      <trkpt lat="43.22269" lon="5.38433">
        <ele>293</ele>
        <time>2013-11-24T12:26:09Z</time>
      </trkpt>
      <trkpt lat="43.22271" lon="5.38434">
        <ele>294</ele>
        <time>2013-11-24T12:26:22Z</time>
      </trkpt>
      <trkpt lat="43.22273" lon="5.38438">
        <ele>296</ele>
        <time>2013-11-24T12:26:34Z</time>
      </trkpt>
      <trkpt lat="43.22276" lon="5.38439">
        <ele>299</ele>
        <time>2013-11-24T12:26:45Z</time>
      </trkpt>
      <trkpt lat="43.22277" lon="5.38438">
        <ele>301</ele>
        <time>2013-11-24T12:26:54Z</time>
      </trkpt>
      <trkpt lat="43.2228" lon="5.38436">
        <ele>303</ele>
        <time>2013-11-24T12:27:08Z</time>
      </trkpt>
      <trkpt lat="43.22282" lon="5.38434">
        <ele>306</ele>
        <time>2013-11-24T12:27:21Z</time>
      </trkpt>
      <trkpt lat="43.22285" lon="5.38434">
        <ele>306</ele>
        <time>2013-11-24T12:27:32Z</time>
      </trkpt>
      <trkpt lat="43.22287" lon="5.38431">
        <ele>309</ele>
        <time>2013-11-24T12:27:50Z</time>
      </trkpt>
      <trkpt lat="43.22289" lon="5.38436">
        <ele>310</ele>
        <time>2013-11-24T12:28:03Z</time>
      </trkpt>
      <trkpt lat="43.2229" lon="5.38437">
        <ele>311</ele>
        <time>2013-11-24T12:28:12Z</time>
      </trkpt>
      <trkpt lat="43.22293" lon="5.38442">
        <ele>312</ele>
        <time>2013-11-24T12:28:26Z</time>
      </trkpt>
      <trkpt lat="43.22293" lon="5.38445">
        <ele>313</ele>
        <time>2013-11-24T12:28:35Z</time>
      </trkpt>
      <trkpt lat="43.22293" lon="5.38444">
        <ele>315</ele>
        <time>2013-11-24T12:28:45Z</time>
      </trkpt>
      <trkpt lat="43.22293" lon="5.38438">
        <ele>316</ele>
        <time>2013-11-24T12:28:57Z</time>
      </trkpt>
      <trkpt lat="43.22294" lon="5.38433">
        <ele>318</ele>
        <time>2013-11-24T12:29:07Z</time>
      </trkpt>
      <trkpt lat="43.22295" lon="5.38431">
        <ele>320</ele>
        <time>2013-11-24T12:29:17Z</time>
      </trkpt>
      <trkpt lat="43.22298" lon="5.38436">
        <ele>321</ele>
        <time>2013-11-24T12:29:27Z</time>
      </trkpt>
      <trkpt lat="43.22298" lon="5.38437">
        <ele>323</ele>
        <time>2013-11-24T12:29:40Z</time>
      </trkpt>
      <trkpt lat="43.223" lon="5.38438">
        <ele>324</ele>
        <time>2013-11-24T12:29:51Z</time>
      </trkpt>
      <trkpt lat="43.22301" lon="5.38441">
        <ele>326</ele>
        <time>2013-11-24T12:30:03Z</time>
      </trkpt>
      <trkpt lat="43.22303" lon="5.38441">
        <ele>327</ele>
        <time>2013-11-24T12:30:12Z</time>
      </trkpt>
      <trkpt lat="43.22302" lon="5.38438">
        <ele>327</ele>
        <time>2013-11-24T12:30:24Z</time>
      </trkpt>
      <trkpt lat="43.22301" lon="5.38433">
        <ele>328</ele>
        <time>2013-11-24T12:30:36Z</time>
      </trkpt>
      <trkpt lat="43.22297" lon="5.38431">
        <ele>331</ele>
        <time>2013-11-24T12:30:47Z</time>
      </trkpt>
      <trkpt lat="43.22297" lon="5.38427">
        <ele>331</ele>
        <time>2013-11-24T12:30:56Z</time>
      </trkpt>
      <trkpt lat="43.22296" lon="5.38427">
        <ele>331</ele>
        <time>2013-11-24T12:31:05Z</time>
      </trkpt>
      <trkpt lat="43.22298" lon="5.38434">
        <ele>331</ele>
        <time>2013-11-24T12:31:16Z</time>
      </trkpt>
      <trkpt lat="43.22298" lon="5.38429">
        <ele>331</ele>
        <time>2013-11-24T12:31:28Z</time>
      </trkpt>
      <trkpt lat="43.223" lon="5.38432">
        <ele>331</ele>
        <time>2013-11-24T12:31:37Z</time>
      </trkpt>
      <trkpt lat="43.223" lon="5.38438">
        <ele>332</ele>
        <time>2013-11-24T12:31:47Z</time>
      </trkpt>
      <trkpt lat="43.22297" lon="5.38433">
        <ele>332</ele>
        <time>2013-11-24T12:31:58Z</time>
      </trkpt>
      <trkpt lat="43.22298" lon="5.38427">
        <ele>333</ele>
        <time>2013-11-24T12:32:07Z</time>
      </trkpt>
      <trkpt lat="43.223" lon="5.38428">
        <ele>333</ele>
        <time>2013-11-24T12:32:59Z</time>
      </trkpt>
      <trkpt lat="43.22299" lon="5.3843">
        <ele>333</ele>
        <time>2013-11-24T12:33:22Z</time>
      </trkpt>
      <trkpt lat="43.22298" lon="5.38428">
        <ele>333</ele>
        <time>2013-11-24T12:33:36Z</time>
      </trkpt>
      <trkpt lat="43.22297" lon="5.38428">
        <ele>333</ele>
        <time>2013-11-24T12:33:52Z</time>
      </trkpt>
      <trkpt lat="43.22297" lon="5.38425">
        <ele>334</ele>
        <time>2013-11-24T12:34:15Z</time>
      </trkpt>
      <trkpt lat="43.22297" lon="5.38427">
        <ele>335</ele>
        <time>2013-11-24T12:34:34Z</time>
      </trkpt>
      <trkpt lat="43.22298" lon="5.38428">
        <ele>335</ele>
        <time>2013-11-24T12:34:44Z</time>
      </trkpt>
      <trkpt lat="43.22297" lon="5.38428">
        <ele>337</ele>
        <time>2013-11-24T12:35:09Z</time>
      </trkpt>
      <trkpt lat="43.22295" lon="5.38427">
        <ele>337</ele>
        <time>2013-11-24T12:35:24Z</time>
      </trkpt>
      <trkpt lat="43.22293" lon="5.38426">
        <ele>340</ele>
        <time>2013-11-24T12:35:38Z</time>
      </trkpt>
      <trkpt lat="43.22294" lon="5.3842">
        <ele>340</ele>
        <time>2013-11-24T12:35:54Z</time>
      </trkpt>
      <trkpt lat="43.22295" lon="5.38422">
        <ele>340</ele>
        <time>2013-11-24T12:36:10Z</time>
      </trkpt>
      <trkpt lat="43.22296" lon="5.38421">
        <ele>340</ele>
        <time>2013-11-24T12:36:46Z</time>
      </trkpt>
      <trkpt lat="43.22298" lon="5.38425">
        <ele>339</ele>
        <time>2013-11-24T12:36:55Z</time>
      </trkpt>
      <trkpt lat="43.22299" lon="5.38428">
        <ele>339</ele>
        <time>2013-11-24T12:37:04Z</time>
      </trkpt>
      <trkpt lat="43.22296" lon="5.38425">
        <ele>338</ele>
        <time>2013-11-24T12:37:15Z</time>
      </trkpt>
      <trkpt lat="43.223" lon="5.38432">
        <ele>338</ele>
        <time>2013-11-24T12:37:24Z</time>
      </trkpt>
      <trkpt lat="43.223" lon="5.38429">
        <ele>338</ele>
        <time>2013-11-24T12:37:34Z</time>
      </trkpt>
      <trkpt lat="43.22299" lon="5.38427">
        <ele>338</ele>
        <time>2013-11-24T12:37:43Z</time>
      </trkpt>
      <trkpt lat="43.22297" lon="5.38427">
        <ele>338</ele>
        <time>2013-11-24T12:37:53Z</time>
      </trkpt>
      <trkpt lat="43.22295" lon="5.38427">
        <ele>338</ele>
        <time>2013-11-24T12:38:02Z</time>
      </trkpt>
      <trkpt lat="43.22296" lon="5.38422">
        <ele>338</ele>
        <time>2013-11-24T12:38:14Z</time>
      </trkpt>
      <trkpt lat="43.22299" lon="5.3842">
        <ele>338</ele>
        <time>2013-11-24T12:38:26Z</time>
      </trkpt>
      <trkpt lat="43.22303" lon="5.38418">
        <ele>338</ele>
        <time>2013-11-24T12:38:37Z</time>
      </trkpt>
      <trkpt lat="43.22305" lon="5.38417">
        <ele>338</ele>
        <time>2013-11-24T12:38:46Z</time>
      </trkpt>
      <trkpt lat="43.22306" lon="5.38418">
        <ele>338</ele>
        <time>2013-11-24T12:38:55Z</time>
      </trkpt>
      <trkpt lat="43.22309" lon="5.38417">
        <ele>338</ele>
        <time>2013-11-24T12:39:07Z</time>
      </trkpt>
      <trkpt lat="43.22311" lon="5.38413">
        <ele>338</ele>
        <time>2013-11-24T12:39:23Z</time>
      </trkpt>
      <trkpt lat="43.22312" lon="5.38408">
        <ele>340</ele>
        <time>2013-11-24T12:39:36Z</time>
      </trkpt>
      <trkpt lat="43.22314" lon="5.38405">
        <ele>341</ele>
        <time>2013-11-24T12:39:45Z</time>
      </trkpt>
      <trkpt lat="43.22316" lon="5.384">
        <ele>341</ele>
        <time>2013-11-24T12:39:56Z</time>
      </trkpt>
      <trkpt lat="43.22317" lon="5.38392">
        <ele>341</ele>
        <time>2013-11-24T12:40:05Z</time>
      </trkpt>
      <trkpt lat="43.22318" lon="5.38389">
        <ele>343</ele>
        <time>2013-11-24T12:40:18Z</time>
      </trkpt>
      <trkpt lat="43.2232" lon="5.38388">
        <ele>348</ele>
        <time>2013-11-24T12:40:37Z</time>
      </trkpt>
      <trkpt lat="43.22322" lon="5.38388">
        <ele>349</ele>
        <time>2013-11-24T12:40:47Z</time>
      </trkpt>
      <trkpt lat="43.22324" lon="5.38391">
        <ele>350</ele>
        <time>2013-11-24T12:40:56Z</time>
      </trkpt>
      <trkpt lat="43.22326" lon="5.38394">
        <ele>354</ele>
        <time>2013-11-24T12:41:14Z</time>
      </trkpt>
      <trkpt lat="43.22328" lon="5.38391">
        <ele>357</ele>
        <time>2013-11-24T12:41:28Z</time>
      </trkpt>
      <trkpt lat="43.22331" lon="5.38387">
        <ele>358</ele>
        <time>2013-11-24T12:41:41Z</time>
      </trkpt>
      <trkpt lat="43.22333" lon="5.38387">
        <ele>359</ele>
        <time>2013-11-24T12:41:50Z</time>
      </trkpt>
      <trkpt lat="43.22336" lon="5.38392">
        <ele>359</ele>
        <time>2013-11-24T12:42:04Z</time>
      </trkpt>
      <trkpt lat="43.22338" lon="5.38391">
        <ele>359</ele>
        <time>2013-11-24T12:42:15Z</time>
      </trkpt>
      <trkpt lat="43.22339" lon="5.38392">
        <ele>359</ele>
        <time>2013-11-24T12:42:25Z</time>
      </trkpt>
      <trkpt lat="43.22337" lon="5.38389">
        <ele>360</ele>
        <time>2013-11-24T12:42:38Z</time>
      </trkpt>
      <trkpt lat="43.22338" lon="5.3839">
        <ele>363</ele>
        <time>2013-11-24T12:43:23Z</time>
      </trkpt>
      <trkpt lat="43.22337" lon="5.3839">
        <ele>364</ele>
        <time>2013-11-24T12:43:45Z</time>
      </trkpt>
      <trkpt lat="43.22337" lon="5.38386">
        <ele>365</ele>
        <time>2013-11-24T12:44:14Z</time>
      </trkpt>
      <trkpt lat="43.22337" lon="5.38387">
        <ele>363</ele>
        <time>2013-11-24T12:44:32Z</time>
      </trkpt>
      <trkpt lat="43.22336" lon="5.38387">
        <ele>367</ele>
        <time>2013-11-24T12:44:49Z</time>
      </trkpt>
      <trkpt lat="43.22338" lon="5.38387">
        <ele>367</ele>
        <time>2013-11-24T12:44:58Z</time>
      </trkpt>
      <trkpt lat="43.22337" lon="5.38386">
        <ele>365</ele>
        <time>2013-11-24T12:45:19Z</time>
      </trkpt>
      <trkpt lat="43.22336" lon="5.38387">
        <ele>365</ele>
        <time>2013-11-24T12:45:45Z</time>
      </trkpt>
      <trkpt lat="43.22336" lon="5.38386">
        <ele>365</ele>
        <time>2013-11-24T12:46:12Z</time>
      </trkpt>
      <trkpt lat="43.22335" lon="5.38378">
        <ele>365</ele>
        <time>2013-11-24T12:46:22Z</time>
      </trkpt>
      <trkpt lat="43.22338" lon="5.38367">
        <ele>365</ele>
        <time>2013-11-24T12:46:32Z</time>
      </trkpt>
      <trkpt lat="43.22345" lon="5.38357">
        <ele>365</ele>
        <time>2013-11-24T12:46:42Z</time>
      </trkpt>
      <trkpt lat="43.22348" lon="5.38346">
        <ele>365</ele>
        <time>2013-11-24T12:46:51Z</time>
      </trkpt>
      <trkpt lat="43.22351" lon="5.38339">
        <ele>365</ele>
        <time>2013-11-24T12:47:01Z</time>
      </trkpt>
      <trkpt lat="43.2235" lon="5.38334">
        <ele>365</ele>
        <time>2013-11-24T12:47:10Z</time>
      </trkpt>
      <trkpt lat="43.22346" lon="5.38329">
        <ele>365</ele>
        <time>2013-11-24T12:47:24Z</time>
      </trkpt>
      <trkpt lat="43.22345" lon="5.38329">
        <ele>364</ele>
        <time>2013-11-24T12:47:37Z</time>
      </trkpt>
      <trkpt lat="43.2234" lon="5.38325">
        <ele>364</ele>
        <time>2013-11-24T12:47:47Z</time>
      </trkpt>
      <trkpt lat="43.22336" lon="5.38322">
        <ele>361</ele>
        <time>2013-11-24T12:47:56Z</time>
      </trkpt>
      <trkpt lat="43.22337" lon="5.38315">
        <ele>359</ele>
        <time>2013-11-24T12:48:05Z</time>
      </trkpt>
      <trkpt lat="43.22335" lon="5.38307">
        <ele>357</ele>
        <time>2013-11-24T12:48:14Z</time>
      </trkpt>
      <trkpt lat="43.22338" lon="5.383">
        <ele>354</ele>
        <time>2013-11-24T12:48:24Z</time>
      </trkpt>
      <trkpt lat="43.22336" lon="5.38294">
        <ele>351</ele>
        <time>2013-11-24T12:48:33Z</time>
      </trkpt>
      <trkpt lat="43.22336" lon="5.38288">
        <ele>348</ele>
        <time>2013-11-24T12:48:43Z</time>
      </trkpt>
      <trkpt lat="43.22334" lon="5.3828">
        <ele>345</ele>
        <time>2013-11-24T12:48:54Z</time>
      </trkpt>
      <trkpt lat="43.22332" lon="5.3827">
        <ele>343</ele>
        <time>2013-11-24T12:49:03Z</time>
      </trkpt>
      <trkpt lat="43.22332" lon="5.3826">
        <ele>341</ele>
        <time>2013-11-24T12:49:16Z</time>
      </trkpt>
      <trkpt lat="43.2233" lon="5.38252">
        <ele>339</ele>
        <time>2013-11-24T12:49:26Z</time>
      </trkpt>
      <trkpt lat="43.22328" lon="5.38248">
        <ele>336</ele>
        <time>2013-11-24T12:49:35Z</time>
      </trkpt>
      <trkpt lat="43.22327" lon="5.38241">
        <ele>333</ele>
        <time>2013-11-24T12:49:45Z</time>
      </trkpt>
      <trkpt lat="43.22326" lon="5.38235">
        <ele>330</ele>
        <time>2013-11-24T12:49:55Z</time>
      </trkpt>
      <trkpt lat="43.22324" lon="5.38229">
        <ele>328</ele>
        <time>2013-11-24T12:50:05Z</time>
      </trkpt>
      <trkpt lat="43.22324" lon="5.38222">
        <ele>325</ele>
        <time>2013-11-24T12:50:14Z</time>
      </trkpt>
      <trkpt lat="43.22327" lon="5.38216">
        <ele>322</ele>
        <time>2013-11-24T12:50:25Z</time>
      </trkpt>
      <trkpt lat="43.2233" lon="5.38207">
        <ele>320</ele>
        <time>2013-11-24T12:50:37Z</time>
      </trkpt>
      <trkpt lat="43.22324" lon="5.3821">
        <ele>319</ele>
        <time>2013-11-24T12:50:46Z</time>
      </trkpt>
      <trkpt lat="43.2232" lon="5.38211">
        <ele>318</ele>
        <time>2013-11-24T12:50:56Z</time>
      </trkpt>
      <trkpt lat="43.22317" lon="5.38205">
        <ele>315</ele>
        <time>2013-11-24T12:51:09Z</time>
      </trkpt>
      <trkpt lat="43.2231" lon="5.38207">
        <ele>313</ele>
        <time>2013-11-24T12:51:19Z</time>
      </trkpt>
      <trkpt lat="43.22308" lon="5.38203">
        <ele>313</ele>
        <time>2013-11-24T12:51:29Z</time>
      </trkpt>
      <trkpt lat="43.22307" lon="5.38202">
        <ele>312</ele>
        <time>2013-11-24T12:51:44Z</time>
      </trkpt>
      <trkpt lat="43.22306" lon="5.38199">
        <ele>311</ele>
        <time>2013-11-24T12:52:07Z</time>
      </trkpt>
      <trkpt lat="43.22305" lon="5.38197">
        <ele>311</ele>
        <time>2013-11-24T12:52:16Z</time>
      </trkpt>
      <trkpt lat="43.22304" lon="5.38197">
        <ele>311</ele>
        <time>2013-11-24T12:52:32Z</time>
      </trkpt>
      <trkpt lat="43.22305" lon="5.38194">
        <ele>311</ele>
        <time>2013-11-24T12:52:41Z</time>
      </trkpt>
      <trkpt lat="43.22304" lon="5.38191">
        <ele>308</ele>
        <time>2013-11-24T12:52:50Z</time>
      </trkpt>
      <trkpt lat="43.22303" lon="5.38188">
        <ele>302</ele>
        <time>2013-11-24T12:53:03Z</time>
      </trkpt>
      <trkpt lat="43.22298" lon="5.38183">
        <ele>299</ele>
        <time>2013-11-24T12:53:13Z</time>
      </trkpt>
      <trkpt lat="43.22294" lon="5.3818">
        <ele>297</ele>
        <time>2013-11-24T12:53:22Z</time>
      </trkpt>
      <trkpt lat="43.22289" lon="5.38173">
        <ele>295</ele>
        <time>2013-11-24T12:53:32Z</time>
      </trkpt>
      <trkpt lat="43.22285" lon="5.38171">
        <ele>295</ele>
        <time>2013-11-24T12:53:42Z</time>
      </trkpt>
      <trkpt lat="43.22283" lon="5.38166">
        <ele>295</ele>
        <time>2013-11-24T12:53:57Z</time>
      </trkpt>
      <trkpt lat="43.2228" lon="5.38159">
        <ele>293</ele>
        <time>2013-11-24T12:54:12Z</time>
      </trkpt>
      <trkpt lat="43.2228" lon="5.38156">
        <ele>292</ele>
        <time>2013-11-24T12:54:22Z</time>
      </trkpt>
      <trkpt lat="43.2228" lon="5.38157">
        <ele>292</ele>
        <time>2013-11-24T12:54:31Z</time>
      </trkpt>
      <trkpt lat="43.2228" lon="5.38155">
        <ele>291</ele>
        <time>2013-11-24T12:54:45Z</time>
      </trkpt>
      <trkpt lat="43.22278" lon="5.38146">
        <ele>286</ele>
        <time>2013-11-24T12:54:55Z</time>
      </trkpt>
      <trkpt lat="43.22278" lon="5.38135">
        <ele>282</ele>
        <time>2013-11-24T12:55:04Z</time>
      </trkpt>
      <trkpt lat="43.2228" lon="5.38121">
        <ele>280</ele>
        <time>2013-11-24T12:55:13Z</time>
      </trkpt>
      <trkpt lat="43.22284" lon="5.3811">
        <ele>277</ele>
        <time>2013-11-24T12:55:24Z</time>
      </trkpt>
      <trkpt lat="43.22288" lon="5.38101">
        <ele>274</ele>
        <time>2013-11-24T12:55:33Z</time>
      </trkpt>
      <trkpt lat="43.2229" lon="5.38086">
        <ele>273</ele>
        <time>2013-11-24T12:55:43Z</time>
      </trkpt>
      <trkpt lat="43.22295" lon="5.38069">
        <ele>273</ele>
        <time>2013-11-24T12:55:52Z</time>
      </trkpt>
      <trkpt lat="43.22299" lon="5.38056">
        <ele>273</ele>
        <time>2013-11-24T12:56:02Z</time>
      </trkpt>
      <trkpt lat="43.22304" lon="5.38047">
        <ele>273</ele>
        <time>2013-11-24T12:56:11Z</time>
      </trkpt>
      <trkpt lat="43.2231" lon="5.38037">
        <ele>273</ele>
        <time>2013-11-24T12:56:21Z</time>
      </trkpt>
      <trkpt lat="43.22313" lon="5.38025">
        <ele>273</ele>
        <time>2013-11-24T12:56:31Z</time>
      </trkpt>
      <trkpt lat="43.22319" lon="5.38013">
        <ele>273</ele>
        <time>2013-11-24T12:56:40Z</time>
      </trkpt>
      <trkpt lat="43.22321" lon="5.38003">
        <ele>271</ele>
        <time>2013-11-24T12:56:50Z</time>
      </trkpt>
      <trkpt lat="43.22316" lon="5.3799">
        <ele>269</ele>
        <time>2013-11-24T12:56:59Z</time>
      </trkpt>
      <trkpt lat="43.22319" lon="5.37971">
        <ele>269</ele>
        <time>2013-11-24T12:57:09Z</time>
      </trkpt>
      <trkpt lat="43.2232" lon="5.37958">
        <ele>269</ele>
        <time>2013-11-24T12:57:19Z</time>
      </trkpt>
      <trkpt lat="43.22321" lon="5.37942">
        <ele>269</ele>
        <time>2013-11-24T12:57:29Z</time>
      </trkpt>
      <trkpt lat="43.22325" lon="5.37922">
        <ele>269</ele>
        <time>2013-11-24T12:57:39Z</time>
      </trkpt>
      <trkpt lat="43.22331" lon="5.3791">
        <ele>269</ele>
        <time>2013-11-24T12:57:49Z</time>
      </trkpt>
      <trkpt lat="43.22338" lon="5.37898">
        <ele>269</ele>
        <time>2013-11-24T12:57:59Z</time>
      </trkpt>
      <trkpt lat="43.22344" lon="5.37885">
        <ele>269</ele>
        <time>2013-11-24T12:58:09Z</time>
      </trkpt>
      <trkpt lat="43.22344" lon="5.37877">
        <ele>268</ele>
        <time>2013-11-24T12:58:18Z</time>
      </trkpt>
      <trkpt lat="43.22343" lon="5.37866">
        <ele>268</ele>
        <time>2013-11-24T12:58:27Z</time>
      </trkpt>
      <trkpt lat="43.22346" lon="5.37858">
        <ele>268</ele>
        <time>2013-11-24T12:58:40Z</time>
      </trkpt>
      <trkpt lat="43.22348" lon="5.37864">
        <ele>268</ele>
        <time>2013-11-24T12:58:50Z</time>
      </trkpt>
      <trkpt lat="43.22354" lon="5.37869">
        <ele>267</ele>
        <time>2013-11-24T12:58:59Z</time>
      </trkpt>
      <trkpt lat="43.22358" lon="5.37874">
        <ele>263</ele>
        <time>2013-11-24T12:59:11Z</time>
      </trkpt>
      <trkpt lat="43.22363" lon="5.3788">
        <ele>258</ele>
        <time>2013-11-24T12:59:22Z</time>
      </trkpt>
      <trkpt lat="43.22368" lon="5.37887">
        <ele>256</ele>
        <time>2013-11-24T12:59:32Z</time>
      </trkpt>
      <trkpt lat="43.2237" lon="5.37899">
        <ele>256</ele>
        <time>2013-11-24T12:59:42Z</time>
      </trkpt>
      <trkpt lat="43.22374" lon="5.37907">
        <ele>252</ele>
        <time>2013-11-24T12:59:52Z</time>
      </trkpt>
      <trkpt lat="43.22379" lon="5.37912">
        <ele>248</ele>
        <time>2013-11-24T13:00:02Z</time>
      </trkpt>
      <trkpt lat="43.22379" lon="5.3791">
        <ele>248</ele>
        <time>2013-11-24T13:00:11Z</time>
      </trkpt>
      <trkpt lat="43.22381" lon="5.379">
        <ele>248</ele>
        <time>2013-11-24T13:00:21Z</time>
      </trkpt>
      <trkpt lat="43.22385" lon="5.37907">
        <ele>247</ele>
        <time>2013-11-24T13:00:31Z</time>
      </trkpt>
      <trkpt lat="43.2239" lon="5.37904">
        <ele>243</ele>
        <time>2013-11-24T13:00:40Z</time>
      </trkpt>
      <trkpt lat="43.22394" lon="5.37893">
        <ele>242</ele>
        <time>2013-11-24T13:00:50Z</time>
      </trkpt>
      <trkpt lat="43.22397" lon="5.37879">
        <ele>242</ele>
        <time>2013-11-24T13:00:59Z</time>
      </trkpt>
      <trkpt lat="43.224" lon="5.37865">
        <ele>241</ele>
        <time>2013-11-24T13:01:09Z</time>
      </trkpt>
      <trkpt lat="43.22402" lon="5.37851">
        <ele>237</ele>
        <time>2013-11-24T13:01:19Z</time>
      </trkpt>
      <trkpt lat="43.22409" lon="5.37844">
        <ele>237</ele>
        <time>2013-11-24T13:01:30Z</time>
      </trkpt>
      <trkpt lat="43.22409" lon="5.37845">
        <ele>244</ele>
        <time>2013-11-24T13:01:40Z</time>
      </trkpt>
      <trkpt lat="43.22408" lon="5.37849">
        <ele>244</ele>
        <time>2013-11-24T13:01:49Z</time>
      </trkpt>
      <trkpt lat="43.22411" lon="5.37844">
        <ele>244</ele>
        <time>2013-11-24T13:02:01Z</time>
      </trkpt>
      <trkpt lat="43.2241" lon="5.37849">
        <ele>246</ele>
        <time>2013-11-24T13:02:10Z</time>
      </trkpt>
      <trkpt lat="43.22411" lon="5.37849">
        <ele>248</ele>
        <time>2013-11-24T13:02:23Z</time>
      </trkpt>
      <trkpt lat="43.22413" lon="5.37848">
        <ele>248</ele>
        <time>2013-11-24T13:02:35Z</time>
      </trkpt>
      <trkpt lat="43.22421" lon="5.37851">
        <ele>248</ele>
        <time>2013-11-24T13:02:44Z</time>
      </trkpt>
      <trkpt lat="43.22428" lon="5.37862">
        <ele>246</ele>
        <time>2013-11-24T13:02:54Z</time>
      </trkpt>
      <trkpt lat="43.22433" lon="5.37878">
        <ele>239</ele>
        <time>2013-11-24T13:03:04Z</time>
      </trkpt>
      <trkpt lat="43.22441" lon="5.37893">
        <ele>235</ele>
        <time>2013-11-24T13:03:14Z</time>
      </trkpt>
      <trkpt lat="43.22449" lon="5.37901">
        <ele>228</ele>
        <time>2013-11-24T13:03:24Z</time>
      </trkpt>
      <trkpt lat="43.22456" lon="5.37915">
        <ele>221</ele>
        <time>2013-11-24T13:03:35Z</time>
      </trkpt>
      <trkpt lat="43.22465" lon="5.37925">
        <ele>221</ele>
        <time>2013-11-24T13:03:44Z</time>
      </trkpt>
      <trkpt lat="43.22477" lon="5.37935">
        <ele>218</ele>
        <time>2013-11-24T13:03:55Z</time>
      </trkpt>
      <trkpt lat="43.22486" lon="5.3794">
        <ele>218</ele>
        <time>2013-11-24T13:04:04Z</time>
      </trkpt>
      <trkpt lat="43.22493" lon="5.37935">
        <ele>218</ele>
        <time>2013-11-24T13:04:15Z</time>
      </trkpt>
      <trkpt lat="43.225" lon="5.3793">
        <ele>220</ele>
        <time>2013-11-24T13:04:24Z</time>
      </trkpt>
      <trkpt lat="43.22507" lon="5.37921">
        <ele>221</ele>
        <time>2013-11-24T13:04:33Z</time>
      </trkpt>
      <trkpt lat="43.22514" lon="5.37911">
        <ele>221</ele>
        <time>2013-11-24T13:04:43Z</time>
      </trkpt>
      <trkpt lat="43.2252" lon="5.3791">
        <ele>221</ele>
        <time>2013-11-24T13:04:52Z</time>
      </trkpt>
      <trkpt lat="43.22528" lon="5.37912">
        <ele>221</ele>
        <time>2013-11-24T13:05:01Z</time>
      </trkpt>
      <trkpt lat="43.22536" lon="5.37915">
        <ele>221</ele>
        <time>2013-11-24T13:05:11Z</time>
      </trkpt>
      <trkpt lat="43.22542" lon="5.37919">
        <ele>221</ele>
        <time>2013-11-24T13:05:20Z</time>
      </trkpt>
      <trkpt lat="43.22547" lon="5.37922">
        <ele>221</ele>
        <time>2013-11-24T13:05:29Z</time>
      </trkpt>
      <trkpt lat="43.22553" lon="5.37924">
        <ele>221</ele>
        <time>2013-11-24T13:05:39Z</time>
      </trkpt>
      <trkpt lat="43.22561" lon="5.37927">
        <ele>221</ele>
        <time>2013-11-24T13:05:49Z</time>
      </trkpt>
      <trkpt lat="43.22569" lon="5.37928">
        <ele>221</ele>
        <time>2013-11-24T13:05:59Z</time>
      </trkpt>
      <trkpt lat="43.22575" lon="5.37931">
        <ele>222</ele>
        <time>2013-11-24T13:06:09Z</time>
      </trkpt>
      <trkpt lat="43.22578" lon="5.37934">
        <ele>223</ele>
        <time>2013-11-24T13:06:19Z</time>
      </trkpt>
      <trkpt lat="43.22583" lon="5.37937">
        <ele>225</ele>
        <time>2013-11-24T13:06:29Z</time>
      </trkpt>
      <trkpt lat="43.22587" lon="5.37943">
        <ele>227</ele>
        <time>2013-11-24T13:06:39Z</time>
      </trkpt>
      <trkpt lat="43.22591" lon="5.3795">
        <ele>228</ele>
        <time>2013-11-24T13:06:50Z</time>
      </trkpt>
      <trkpt lat="43.22593" lon="5.37961">
        <ele>229</ele>
        <time>2013-11-24T13:07:00Z</time>
      </trkpt>
      <trkpt lat="43.22594" lon="5.37971">
        <ele>230</ele>
        <time>2013-11-24T13:07:11Z</time>
      </trkpt>
      <trkpt lat="43.22598" lon="5.37977">
        <ele>234</ele>
        <time>2013-11-24T13:07:51Z</time>
      </trkpt>
      <trkpt lat="43.22599" lon="5.37978">
        <ele>234</ele>
        <time>2013-11-24T13:08:34Z</time>
      </trkpt>
      <trkpt lat="43.22601" lon="5.37985">
        <ele>234</ele>
        <time>2013-11-24T13:08:44Z</time>
      </trkpt>
      <trkpt lat="43.22604" lon="5.37994">
        <ele>234</ele>
        <time>2013-11-24T13:08:54Z</time>
      </trkpt>
      <trkpt lat="43.22612" lon="5.37995">
        <ele>234</ele>
        <time>2013-11-24T13:09:04Z</time>
      </trkpt>
      <trkpt lat="43.22618" lon="5.37996">
        <ele>234</ele>
        <time>2013-11-24T13:09:14Z</time>
      </trkpt>
      <trkpt lat="43.22626" lon="5.38003">
        <ele>234</ele>
        <time>2013-11-24T13:09:25Z</time>
      </trkpt>
      <trkpt lat="43.2263" lon="5.38015">
        <ele>234</ele>
        <time>2013-11-24T13:09:35Z</time>
      </trkpt>
      <trkpt lat="43.2263" lon="5.38028">
        <ele>234</ele>
        <time>2013-11-24T13:09:44Z</time>
      </trkpt>
      <trkpt lat="43.22635" lon="5.38041">
        <ele>234</ele>
        <time>2013-11-24T13:09:55Z</time>
      </trkpt>
      <trkpt lat="43.22635" lon="5.38054">
        <ele>234</ele>
        <time>2013-11-24T13:10:04Z</time>
      </trkpt>
      <trkpt lat="43.22639" lon="5.38071">
        <ele>234</ele>
        <time>2013-11-24T13:10:15Z</time>
      </trkpt>
      <trkpt lat="43.22643" lon="5.38082">
        <ele>234</ele>
        <time>2013-11-24T13:10:24Z</time>
      </trkpt>
      <trkpt lat="43.22648" lon="5.38094">
        <ele>234</ele>
        <time>2013-11-24T13:10:34Z</time>
      </trkpt>
      <trkpt lat="43.22649" lon="5.38106">
        <ele>234</ele>
        <time>2013-11-24T13:10:44Z</time>
      </trkpt>
      <trkpt lat="43.22652" lon="5.38118">
        <ele>234</ele>
        <time>2013-11-24T13:10:54Z</time>
      </trkpt>
      <trkpt lat="43.22658" lon="5.38132">
        <ele>235</ele>
        <time>2013-11-24T13:11:05Z</time>
      </trkpt>
      <trkpt lat="43.22661" lon="5.3814">
        <ele>236</ele>
        <time>2013-11-24T13:11:14Z</time>
      </trkpt>
      <trkpt lat="43.22671" lon="5.38148">
        <ele>240</ele>
        <time>2013-11-24T13:11:24Z</time>
      </trkpt>
      <trkpt lat="43.22684" lon="5.38156">
        <ele>242</ele>
        <time>2013-11-24T13:11:34Z</time>
      </trkpt>
      <trkpt lat="43.22697" lon="5.38163">
        <ele>246</ele>
        <time>2013-11-24T13:11:44Z</time>
      </trkpt>
      <trkpt lat="43.22703" lon="5.38173">
        <ele>246</ele>
        <time>2013-11-24T13:11:54Z</time>
      </trkpt>
      <trkpt lat="43.2271" lon="5.38181">
        <ele>247</ele>
        <time>2013-11-24T13:12:04Z</time>
      </trkpt>
      <trkpt lat="43.22721" lon="5.38191">
        <ele>246</ele>
        <time>2013-11-24T13:12:14Z</time>
      </trkpt>
      <trkpt lat="43.22733" lon="5.38193">
        <ele>245</ele>
        <time>2013-11-24T13:12:24Z</time>
      </trkpt>
      <trkpt lat="43.22742" lon="5.38199">
        <ele>244</ele>
        <time>2013-11-24T13:12:35Z</time>
      </trkpt>
      <trkpt lat="43.22753" lon="5.38192">
        <ele>242</ele>
        <time>2013-11-24T13:12:44Z</time>
      </trkpt>
      <trkpt lat="43.22761" lon="5.38193">
        <ele>242</ele>
        <time>2013-11-24T13:12:54Z</time>
      </trkpt>
      <trkpt lat="43.22771" lon="5.38191">
        <ele>242</ele>
        <time>2013-11-24T13:13:04Z</time>
      </trkpt>
      <trkpt lat="43.22784" lon="5.38188">
        <ele>242</ele>
        <time>2013-11-24T13:13:15Z</time>
      </trkpt>
      <trkpt lat="43.22791" lon="5.38186">
        <ele>243</ele>
        <time>2013-11-24T13:13:25Z</time>
      </trkpt>
      <trkpt lat="43.228" lon="5.38183">
        <ele>243</ele>
        <time>2013-11-24T13:13:34Z</time>
      </trkpt>
      <trkpt lat="43.2281" lon="5.38183">
        <ele>244</ele>
        <time>2013-11-24T13:13:45Z</time>
      </trkpt>
      <trkpt lat="43.22815" lon="5.38192">
        <ele>244</ele>
        <time>2013-11-24T13:13:54Z</time>
      </trkpt>
      <trkpt lat="43.22824" lon="5.38195">
        <ele>246</ele>
        <time>2013-11-24T13:14:04Z</time>
      </trkpt>
      <trkpt lat="43.22829" lon="5.38203">
        <ele>247</ele>
        <time>2013-11-24T13:14:14Z</time>
      </trkpt>
      <trkpt lat="43.22836" lon="5.3821">
        <ele>248</ele>
        <time>2013-11-24T13:14:24Z</time>
      </trkpt>
      <trkpt lat="43.22842" lon="5.38216">
        <ele>249</ele>
        <time>2013-11-24T13:14:35Z</time>
      </trkpt>
      <trkpt lat="43.22847" lon="5.38224">
        <ele>249</ele>
        <time>2013-11-24T13:14:45Z</time>
      </trkpt>
      <trkpt lat="43.22849" lon="5.38235">
        <ele>250</ele>
        <time>2013-11-24T13:14:54Z</time>
      </trkpt>
      <trkpt lat="43.2285" lon="5.38248">
        <ele>250</ele>
        <time>2013-11-24T13:15:04Z</time>
      </trkpt>
      <trkpt lat="43.22851" lon="5.3826">
        <ele>250</ele>
        <time>2013-11-24T13:15:14Z</time>
      </trkpt>
      <trkpt lat="43.22854" lon="5.3827">
        <ele>250</ele>
        <time>2013-11-24T13:15:24Z</time>
      </trkpt>
      <trkpt lat="43.22857" lon="5.38283">
        <ele>248</ele>
        <time>2013-11-24T13:15:33Z</time>
      </trkpt>
      <trkpt lat="43.2286" lon="5.383">
        <ele>247</ele>
        <time>2013-11-24T13:15:43Z</time>
      </trkpt>
      <trkpt lat="43.22861" lon="5.38316">
        <ele>247</ele>
        <time>2013-11-24T13:15:52Z</time>
      </trkpt>
      <trkpt lat="43.22864" lon="5.38332">
        <ele>247</ele>
        <time>2013-11-24T13:16:02Z</time>
      </trkpt>
      <trkpt lat="43.22864" lon="5.38345">
        <ele>247</ele>
        <time>2013-11-24T13:16:12Z</time>
      </trkpt>
      <trkpt lat="43.22861" lon="5.38355">
        <ele>247</ele>
        <time>2013-11-24T13:16:21Z</time>
      </trkpt>
      <trkpt lat="43.22858" lon="5.38362">
        <ele>247</ele>
        <time>2013-11-24T13:16:32Z</time>
      </trkpt>
      <trkpt lat="43.22853" lon="5.38373">
        <ele>247</ele>
        <time>2013-11-24T13:16:41Z</time>
      </trkpt>
      <trkpt lat="43.22849" lon="5.38388">
        <ele>247</ele>
        <time>2013-11-24T13:16:51Z</time>
      </trkpt>
      <trkpt lat="43.22847" lon="5.38401">
        <ele>247</ele>
        <time>2013-11-24T13:17:01Z</time>
      </trkpt>
      <trkpt lat="43.22841" lon="5.38413">
        <ele>247</ele>
        <time>2013-11-24T13:17:10Z</time>
      </trkpt>
      <trkpt lat="43.22834" lon="5.38425">
        <ele>247</ele>
        <time>2013-11-24T13:17:20Z</time>
      </trkpt>
      <trkpt lat="43.22828" lon="5.38434">
        <ele>246</ele>
        <time>2013-11-24T13:17:30Z</time>
      </trkpt>
      <trkpt lat="43.22824" lon="5.38445">
        <ele>242</ele>
        <time>2013-11-24T13:17:40Z</time>
      </trkpt>
      <trkpt lat="43.2282" lon="5.38454">
        <ele>240</ele>
        <time>2013-11-24T13:17:49Z</time>
      </trkpt>
      <trkpt lat="43.22813" lon="5.38462">
        <ele>238</ele>
        <time>2013-11-24T13:17:58Z</time>
      </trkpt>
      <trkpt lat="43.22804" lon="5.38469">
        <ele>237</ele>
        <time>2013-11-24T13:18:08Z</time>
      </trkpt>
      <trkpt lat="43.22794" lon="5.3847">
        <ele>236</ele>
        <time>2013-11-24T13:18:18Z</time>
      </trkpt>
      <trkpt lat="43.22787" lon="5.38471">
        <ele>234</ele>
        <time>2013-11-24T13:18:28Z</time>
      </trkpt>
      <trkpt lat="43.22778" lon="5.38472">
        <ele>230</ele>
        <time>2013-11-24T13:18:39Z</time>
      </trkpt>
      <trkpt lat="43.22769" lon="5.38475">
        <ele>227</ele>
        <time>2013-11-24T13:18:49Z</time>
      </trkpt>
      <trkpt lat="43.22764" lon="5.38483">
        <ele>224</ele>
        <time>2013-11-24T13:18:59Z</time>
      </trkpt>
      <trkpt lat="43.22758" lon="5.38491">
        <ele>223</ele>
        <time>2013-11-24T13:19:08Z</time>
      </trkpt>
      <trkpt lat="43.22747" lon="5.38493">
        <ele>220</ele>
        <time>2013-11-24T13:19:18Z</time>
      </trkpt>
      <trkpt lat="43.22738" lon="5.38497">
        <ele>219</ele>
        <time>2013-11-24T13:19:27Z</time>
      </trkpt>
      <trkpt lat="43.22729" lon="5.38501">
        <ele>218</ele>
        <time>2013-11-24T13:19:37Z</time>
      </trkpt>
      <trkpt lat="43.22719" lon="5.38506">
        <ele>217</ele>
        <time>2013-11-24T13:19:46Z</time>
      </trkpt>
      <trkpt lat="43.22707" lon="5.38513">
        <ele>215</ele>
        <time>2013-11-24T13:19:56Z</time>
      </trkpt>
      <trkpt lat="43.22698" lon="5.38521">
        <ele>213</ele>
        <time>2013-11-24T13:20:05Z</time>
      </trkpt>
      <trkpt lat="43.22686" lon="5.38529">
        <ele>213</ele>
        <time>2013-11-24T13:20:15Z</time>
      </trkpt>
      <trkpt lat="43.22678" lon="5.3854">
        <ele>213</ele>
        <time>2013-11-24T13:20:24Z</time>
      </trkpt>
      <trkpt lat="43.22671" lon="5.38554">
        <ele>213</ele>
        <time>2013-11-24T13:20:33Z</time>
      </trkpt>
      <trkpt lat="43.22668" lon="5.38571">
        <ele>212</ele>
        <time>2013-11-24T13:20:43Z</time>
      </trkpt>
      <trkpt lat="43.22662" lon="5.38584">
        <ele>212</ele>
        <time>2013-11-24T13:20:52Z</time>
      </trkpt>
      <trkpt lat="43.22661" lon="5.386">
        <ele>212</ele>
        <time>2013-11-24T13:21:01Z</time>
      </trkpt>
      <trkpt lat="43.2266" lon="5.3861">
        <ele>212</ele>
        <time>2013-11-24T13:21:10Z</time>
      </trkpt>
      <trkpt lat="43.22659" lon="5.38624">
        <ele>214</ele>
        <time>2013-11-24T13:21:20Z</time>
      </trkpt>
      <trkpt lat="43.22658" lon="5.38637">
        <ele>219</ele>
        <time>2013-11-24T13:21:30Z</time>
      </trkpt>
      <trkpt lat="43.2266" lon="5.38645">
        <ele>220</ele>
        <time>2013-11-24T13:21:40Z</time>
      </trkpt>
      <trkpt lat="43.22658" lon="5.38656">
        <ele>220</ele>
        <time>2013-11-24T13:21:50Z</time>
      </trkpt>
      <trkpt lat="43.22658" lon="5.38663">
        <ele>220</ele>
        <time>2013-11-24T13:21:59Z</time>
      </trkpt>
      <trkpt lat="43.22657" lon="5.38673">
        <ele>220</ele>
        <time>2013-11-24T13:22:11Z</time>
      </trkpt>
      <trkpt lat="43.22662" lon="5.38679">
        <ele>221</ele>
        <time>2013-11-24T13:22:21Z</time>
      </trkpt>
      <trkpt lat="43.22664" lon="5.38684">
        <ele>221</ele>
        <time>2013-11-24T13:22:30Z</time>
      </trkpt>
      <trkpt lat="43.22668" lon="5.38689">
        <ele>222</ele>
        <time>2013-11-24T13:22:39Z</time>
      </trkpt>
      <trkpt lat="43.22667" lon="5.38694">
        <ele>223</ele>
        <time>2013-11-24T13:22:49Z</time>
      </trkpt>
      <trkpt lat="43.22669" lon="5.38702">
        <ele>223</ele>
        <time>2013-11-24T13:23:01Z</time>
      </trkpt>
      <trkpt lat="43.22667" lon="5.38705">
        <ele>223</ele>
        <time>2013-11-24T13:23:13Z</time>
      </trkpt>
      <trkpt lat="43.22667" lon="5.38708">
        <ele>223</ele>
        <time>2013-11-24T13:23:27Z</time>
      </trkpt>
      <trkpt lat="43.22667" lon="5.38708">
        <ele>225</ele>
        <time>2013-11-24T13:23:52Z</time>
      </trkpt>
      <trkpt lat="43.22668" lon="5.38718">
        <ele>225</ele>
        <time>2013-11-24T13:24:02Z</time>
      </trkpt>
      <trkpt lat="43.22663" lon="5.38721">
        <ele>225</ele>
        <time>2013-11-24T13:24:11Z</time>
      </trkpt>
      <trkpt lat="43.2266" lon="5.38726">
        <ele>225</ele>
        <time>2013-11-24T13:24:22Z</time>
      </trkpt>
      <trkpt lat="43.22654" lon="5.38732">
        <ele>223</ele>
        <time>2013-11-24T13:24:32Z</time>
      </trkpt>
      <trkpt lat="43.22649" lon="5.38735">
        <ele>222</ele>
        <time>2013-11-24T13:24:41Z</time>
      </trkpt>
      <trkpt lat="43.22642" lon="5.38739">
        <ele>220</ele>
        <time>2013-11-24T13:24:51Z</time>
      </trkpt>
      <trkpt lat="43.22639" lon="5.38745">
        <ele>218</ele>
        <time>2013-11-24T13:25:00Z</time>
      </trkpt>
      <trkpt lat="43.22636" lon="5.38754">
        <ele>212</ele>
        <time>2013-11-24T13:25:10Z</time>
      </trkpt>
      <trkpt lat="43.22633" lon="5.38762">
        <ele>209</ele>
        <time>2013-11-24T13:25:20Z</time>
      </trkpt>
      <trkpt lat="43.22626" lon="5.3877">
        <ele>207</ele>
        <time>2013-11-24T13:25:30Z</time>
      </trkpt>
      <trkpt lat="43.2262" lon="5.38778">
        <ele>206</ele>
        <time>2013-11-24T13:25:40Z</time>
      </trkpt>
      <trkpt lat="43.22612" lon="5.38785">
        <ele>203</ele>
        <time>2013-11-24T13:25:49Z</time>
      </trkpt>
      <trkpt lat="43.22606" lon="5.3879">
        <ele>198</ele>
        <time>2013-11-24T13:25:58Z</time>
      </trkpt>
      <trkpt lat="43.22596" lon="5.38799">
        <ele>195</ele>
        <time>2013-11-24T13:26:09Z</time>
      </trkpt>
      <trkpt lat="43.22594" lon="5.38809">
        <ele>192</ele>
        <time>2013-11-24T13:26:18Z</time>
      </trkpt>
      <trkpt lat="43.22587" lon="5.38822">
        <ele>190</ele>
        <time>2013-11-24T13:26:29Z</time>
      </trkpt>
      <trkpt lat="43.22578" lon="5.38832">
        <ele>190</ele>
        <time>2013-11-24T13:26:39Z</time>
      </trkpt>
      <trkpt lat="43.2257" lon="5.38846">
        <ele>190</ele>
        <time>2013-11-24T13:26:48Z</time>
      </trkpt>
      <trkpt lat="43.22562" lon="5.38859">
        <ele>189</ele>
        <time>2013-11-24T13:26:57Z</time>
      </trkpt>
      <trkpt lat="43.22552" lon="5.38863">
        <ele>188</ele>
        <time>2013-11-24T13:27:07Z</time>
      </trkpt>
      <trkpt lat="43.22546" lon="5.38874">
        <ele>188</ele>
        <time>2013-11-24T13:27:17Z</time>
      </trkpt>
      <trkpt lat="43.22541" lon="5.38884">
        <ele>188</ele>
        <time>2013-11-24T13:27:26Z</time>
      </trkpt>
      <trkpt lat="43.22536" lon="5.38898">
        <ele>188</ele>
        <time>2013-11-24T13:27:36Z</time>
      </trkpt>
      <trkpt lat="43.22532" lon="5.38911">
        <ele>189</ele>
        <time>2013-11-24T13:27:45Z</time>
      </trkpt>
      <trkpt lat="43.22526" lon="5.38923">
        <ele>189</ele>
        <time>2013-11-24T13:27:55Z</time>
      </trkpt>
      <trkpt lat="43.22518" lon="5.38934">
        <ele>189</ele>
        <time>2013-11-24T13:28:05Z</time>
      </trkpt>
      <trkpt lat="43.22511" lon="5.38948">
        <ele>188</ele>
        <time>2013-11-24T13:28:15Z</time>
      </trkpt>
      <trkpt lat="43.22504" lon="5.38956">
        <ele>186</ele>
        <time>2013-11-24T13:28:25Z</time>
      </trkpt>
      <trkpt lat="43.22496" lon="5.3896">
        <ele>183</ele>
        <time>2013-11-24T13:28:34Z</time>
      </trkpt>
      <trkpt lat="43.2249" lon="5.38963">
        <ele>181</ele>
        <time>2013-11-24T13:28:45Z</time>
      </trkpt>
      <trkpt lat="43.22489" lon="5.38972">
        <ele>179</ele>
        <time>2013-11-24T13:28:54Z</time>
      </trkpt>
      <trkpt lat="43.22486" lon="5.3898">
        <ele>176</ele>
        <time>2013-11-24T13:29:05Z</time>
      </trkpt>
      <trkpt lat="43.2248" lon="5.38986">
        <ele>175</ele>
        <time>2013-11-24T13:29:15Z</time>
      </trkpt>
      <trkpt lat="43.22476" lon="5.38992">
        <ele>172</ele>
        <time>2013-11-24T13:29:24Z</time>
      </trkpt>
      <trkpt lat="43.22469" lon="5.38993">
        <ele>169</ele>
        <time>2013-11-24T13:29:34Z</time>
      </trkpt>
      <trkpt lat="43.22462" lon="5.38998">
        <ele>169</ele>
        <time>2013-11-24T13:29:43Z</time>
      </trkpt>
      <trkpt lat="43.22458" lon="5.39006">
        <ele>165</ele>
        <time>2013-11-24T13:29:54Z</time>
      </trkpt>
      <trkpt lat="43.22452" lon="5.39009">
        <ele>163</ele>
        <time>2013-11-24T13:30:04Z</time>
      </trkpt>
      <trkpt lat="43.22446" lon="5.39014">
        <ele>161</ele>
        <time>2013-11-24T13:30:13Z</time>
      </trkpt>
      <trkpt lat="43.22438" lon="5.39019">
        <ele>158</ele>
        <time>2013-11-24T13:30:23Z</time>
      </trkpt>
      <trkpt lat="43.22431" lon="5.39024">
        <ele>157</ele>
        <time>2013-11-24T13:30:32Z</time>
      </trkpt>
      <trkpt lat="43.22422" lon="5.39023">
        <ele>155</ele>
        <time>2013-11-24T13:30:41Z</time>
      </trkpt>
      <trkpt lat="43.22412" lon="5.39025">
        <ele>155</ele>
        <time>2013-11-24T13:30:50Z</time>
      </trkpt>
      <trkpt lat="43.22403" lon="5.39028">
        <ele>155</ele>
        <time>2013-11-24T13:31:00Z</time>
      </trkpt>
      <trkpt lat="43.22399" lon="5.39031">
        <ele>155</ele>
        <time>2013-11-24T13:31:12Z</time>
      </trkpt>
      <trkpt lat="43.22401" lon="5.39032">
        <ele>155</ele>
        <time>2013-11-24T13:31:25Z</time>
      </trkpt>
      <trkpt lat="43.22401" lon="5.39035">
        <ele>155</ele>
        <time>2013-11-24T13:31:34Z</time>
      </trkpt>
      <trkpt lat="43.22401" lon="5.39034">
        <ele>155</ele>
        <time>2013-11-24T13:31:45Z</time>
      </trkpt>
      <trkpt lat="43.22403" lon="5.39034">
        <ele>152</ele>
        <time>2013-11-24T13:31:58Z</time>
      </trkpt>
      <trkpt lat="43.22403" lon="5.39037">
        <ele>144</ele>
        <time>2013-11-24T13:32:29Z</time>
      </trkpt>
      <trkpt lat="43.22402" lon="5.39036">
        <ele>143</ele>
        <time>2013-11-24T13:32:38Z</time>
      </trkpt>
      <trkpt lat="43.22405" lon="5.39039">
        <ele>136</ele>
        <time>2013-11-24T13:32:52Z</time>
      </trkpt>
      <trkpt lat="43.22403" lon="5.39041">
        <ele>138</ele>
        <time>2013-11-24T13:33:03Z</time>
      </trkpt>
      <trkpt lat="43.22404" lon="5.39039">
        <ele>142</ele>
        <time>2013-11-24T13:33:13Z</time>
      </trkpt>
      <trkpt lat="43.22409" lon="5.39038">
        <ele>144</ele>
        <time>2013-11-24T13:33:23Z</time>
      </trkpt>
      <trkpt lat="43.22417" lon="5.39043">
        <ele>144</ele>
        <time>2013-11-24T13:33:33Z</time>
      </trkpt>
      <trkpt lat="43.22422" lon="5.39049">
        <ele>143</ele>
        <time>2013-11-24T13:33:43Z</time>
      </trkpt>
      <trkpt lat="43.22423" lon="5.39052">
        <ele>143</ele>
        <time>2013-11-24T13:33:53Z</time>
      </trkpt>
      <trkpt lat="43.22427" lon="5.39055">
        <ele>142</ele>
        <time>2013-11-24T13:34:06Z</time>
      </trkpt>
      <trkpt lat="43.22431" lon="5.39054">
        <ele>141</ele>
        <time>2013-11-24T13:34:18Z</time>
      </trkpt>
      <trkpt lat="43.22435" lon="5.3905">
        <ele>139</ele>
        <time>2013-11-24T13:34:27Z</time>
      </trkpt>
      <trkpt lat="43.2244" lon="5.39051">
        <ele>138</ele>
        <time>2013-11-24T13:34:36Z</time>
      </trkpt>
      <trkpt lat="43.22444" lon="5.39051">
        <ele>136</ele>
        <time>2013-11-24T13:34:46Z</time>
      </trkpt>
      <trkpt lat="43.22449" lon="5.39052">
        <ele>136</ele>
        <time>2013-11-24T13:34:55Z</time>
      </trkpt>
      <trkpt lat="43.22455" lon="5.39052">
        <ele>136</ele>
        <time>2013-11-24T13:35:04Z</time>
      </trkpt>
      <trkpt lat="43.22464" lon="5.39055">
        <ele>136</ele>
        <time>2013-11-24T13:35:14Z</time>
      </trkpt>
      <trkpt lat="43.22471" lon="5.3905">
        <ele>132</ele>
        <time>2013-11-24T13:35:24Z</time>
      </trkpt>
      <trkpt lat="43.22476" lon="5.39048">
        <ele>130</ele>
        <time>2013-11-24T13:35:34Z</time>
      </trkpt>
      <trkpt lat="43.22482" lon="5.39046">
        <ele>127</ele>
        <time>2013-11-24T13:35:44Z</time>
      </trkpt>
      <trkpt lat="43.22491" lon="5.39045">
        <ele>125</ele>
        <time>2013-11-24T13:35:54Z</time>
      </trkpt>
      <trkpt lat="43.225" lon="5.39043">
        <ele>123</ele>
        <time>2013-11-24T13:36:05Z</time>
      </trkpt>
      <trkpt lat="43.2251" lon="5.39043">
        <ele>122</ele>
        <time>2013-11-24T13:36:14Z</time>
      </trkpt>
      <trkpt lat="43.22517" lon="5.39042">
        <ele>122</ele>
        <time>2013-11-24T13:36:23Z</time>
      </trkpt>
      <trkpt lat="43.22527" lon="5.39044">
        <ele>122</ele>
        <time>2013-11-24T13:36:32Z</time>
      </trkpt>
      <trkpt lat="43.22539" lon="5.39045">
        <ele>122</ele>
        <time>2013-11-24T13:36:42Z</time>
      </trkpt>
      <trkpt lat="43.2255" lon="5.39047">
        <ele>122</ele>
        <time>2013-11-24T13:36:51Z</time>
      </trkpt>
      <trkpt lat="43.22559" lon="5.39047">
        <ele>122</ele>
        <time>2013-11-24T13:37:00Z</time>
      </trkpt>
      <trkpt lat="43.22572" lon="5.39046">
        <ele>121</ele>
        <time>2013-11-24T13:37:10Z</time>
      </trkpt>
      <trkpt lat="43.22583" lon="5.39048">
        <ele>121</ele>
        <time>2013-11-24T13:37:20Z</time>
      </trkpt>
      <trkpt lat="43.22592" lon="5.39047">
        <ele>118</ele>
        <time>2013-11-24T13:37:29Z</time>
      </trkpt>
      <trkpt lat="43.22601" lon="5.39049">
        <ele>115</ele>
        <time>2013-11-24T13:37:39Z</time>
      </trkpt>
      <trkpt lat="43.22609" lon="5.39054">
        <ele>115</ele>
        <time>2013-11-24T13:37:48Z</time>
      </trkpt>
      <trkpt lat="43.2262" lon="5.39058">
        <ele>115</ele>
        <time>2013-11-24T13:37:58Z</time>
      </trkpt>
      <trkpt lat="43.2263" lon="5.39061">
        <ele>112</ele>
        <time>2013-11-24T13:38:08Z</time>
      </trkpt>
      <trkpt lat="43.22641" lon="5.39059">
        <ele>110</ele>
        <time>2013-11-24T13:38:18Z</time>
      </trkpt>
      <trkpt lat="43.22652" lon="5.39059">
        <ele>102</ele>
        <time>2013-11-24T13:38:27Z</time>
      </trkpt>
      <trkpt lat="43.22661" lon="5.39055">
        <ele>101</ele>
        <time>2013-11-24T13:38:36Z</time>
      </trkpt>
      <trkpt lat="43.22672" lon="5.39053">
        <ele>101</ele>
        <time>2013-11-24T13:38:46Z</time>
      </trkpt>
      <trkpt lat="43.22681" lon="5.39051">
        <ele>101</ele>
        <time>2013-11-24T13:38:55Z</time>
      </trkpt>
      <trkpt lat="43.22689" lon="5.3905">
        <ele>101</ele>
        <time>2013-11-24T13:39:05Z</time>
      </trkpt>
      <trkpt lat="43.22696" lon="5.39045">
        <ele>101</ele>
        <time>2013-11-24T13:39:14Z</time>
      </trkpt>
      <trkpt lat="43.22709" lon="5.3904">
        <ele>101</ele>
        <time>2013-11-24T13:39:25Z</time>
      </trkpt>
      <trkpt lat="43.22721" lon="5.39041">
        <ele>100</ele>
        <time>2013-11-24T13:39:34Z</time>
      </trkpt>
      <trkpt lat="43.22732" lon="5.39048">
        <ele>96</ele>
        <time>2013-11-24T13:39:44Z</time>
      </trkpt>
      <trkpt lat="43.22739" lon="5.39061">
        <ele>92</ele>
        <time>2013-11-24T13:39:53Z</time>
      </trkpt>
      <trkpt lat="43.22742" lon="5.39077">
        <ele>88</ele>
        <time>2013-11-24T13:40:03Z</time>
      </trkpt>
      <trkpt lat="43.2275" lon="5.39089">
        <ele>85</ele>
        <time>2013-11-24T13:40:13Z</time>
      </trkpt>
      <trkpt lat="43.22764" lon="5.39103">
        <ele>84</ele>
        <time>2013-11-24T13:40:24Z</time>
      </trkpt>
      <trkpt lat="43.22773" lon="5.39112">
        <ele>84</ele>
        <time>2013-11-24T13:40:33Z</time>
      </trkpt>
      <trkpt lat="43.22785" lon="5.39121">
        <ele>84</ele>
        <time>2013-11-24T13:40:42Z</time>
      </trkpt>
      <trkpt lat="43.22797" lon="5.39128">
        <ele>84</ele>
        <time>2013-11-24T13:40:51Z</time>
      </trkpt>
      <trkpt lat="43.22808" lon="5.39133">
        <ele>84</ele>
        <time>2013-11-24T13:41:00Z</time>
      </trkpt>
      <trkpt lat="43.22818" lon="5.39136">
        <ele>84</ele>
        <time>2013-11-24T13:41:09Z</time>
      </trkpt>
      <trkpt lat="43.2283" lon="5.39137">
        <ele>83</ele>
        <time>2013-11-24T13:41:19Z</time>
      </trkpt>
      <trkpt lat="43.22844" lon="5.39141">
        <ele>83</ele>
        <time>2013-11-24T13:41:29Z</time>
      </trkpt>
      <trkpt lat="43.22857" lon="5.39144">
        <ele>83</ele>
        <time>2013-11-24T13:41:40Z</time>
      </trkpt>
      <trkpt lat="43.22863" lon="5.39148">
        <ele>83</ele>
        <time>2013-11-24T13:41:57Z</time>
      </trkpt>
      <trkpt lat="43.22861" lon="5.39148">
        <ele>83</ele>
        <time>2013-11-24T13:42:10Z</time>
      </trkpt>
      <trkpt lat="43.22874" lon="5.39152">
        <ele>83</ele>
        <time>2013-11-24T13:42:19Z</time>
      </trkpt>
      <trkpt lat="43.22885" lon="5.39157">
        <ele>83</ele>
        <time>2013-11-24T13:42:29Z</time>
      </trkpt>
      <trkpt lat="43.22897" lon="5.39163">
        <ele>83</ele>
        <time>2013-11-24T13:42:39Z</time>
      </trkpt>
      <trkpt lat="43.22906" lon="5.39175">
        <ele>83</ele>
        <time>2013-11-24T13:42:48Z</time>
      </trkpt>
      <trkpt lat="43.22912" lon="5.39187">
        <ele>82</ele>
        <time>2013-11-24T13:42:58Z</time>
      </trkpt>
      <trkpt lat="43.22921" lon="5.392">
        <ele>80</ele>
        <time>2013-11-24T13:43:08Z</time>
      </trkpt>
      <trkpt lat="43.2293" lon="5.3921">
        <ele>78</ele>
        <time>2013-11-24T13:43:18Z</time>
      </trkpt>
      <trkpt lat="43.22937" lon="5.39223">
        <ele>78</ele>
        <time>2013-11-24T13:43:28Z</time>
      </trkpt>
      <trkpt lat="43.22946" lon="5.39237">
        <ele>78</ele>
        <time>2013-11-24T13:43:39Z</time>
      </trkpt>
      <trkpt lat="43.22952" lon="5.39248">
        <ele>78</ele>
        <time>2013-11-24T13:43:49Z</time>
      </trkpt>
      <trkpt lat="43.22961" lon="5.39262">
        <ele>78</ele>
        <time>2013-11-24T13:43:59Z</time>
      </trkpt>
      <trkpt lat="43.22967" lon="5.39273">
        <ele>78</ele>
        <time>2013-11-24T13:44:09Z</time>
      </trkpt>
      <trkpt lat="43.22975" lon="5.39281">
        <ele>78</ele>
        <time>2013-11-24T13:44:18Z</time>
      </trkpt>
      <trkpt lat="43.22986" lon="5.39293">
        <ele>78</ele>
        <time>2013-11-24T13:44:29Z</time>
      </trkpt>
      <trkpt lat="43.22997" lon="5.39301">
        <ele>78</ele>
        <time>2013-11-24T13:44:39Z</time>
      </trkpt>
      <trkpt lat="43.23006" lon="5.39312">
        <ele>78</ele>
        <time>2013-11-24T13:44:49Z</time>
      </trkpt>
      <trkpt lat="43.23016" lon="5.39322">
        <ele>78</ele>
        <time>2013-11-24T13:44:59Z</time>
      </trkpt>
      <trkpt lat="43.23024" lon="5.39336">
        <ele>78</ele>
        <time>2013-11-24T13:45:09Z</time>
      </trkpt>
      <trkpt lat="43.23029" lon="5.39349">
        <ele>78</ele>
        <time>2013-11-24T13:45:18Z</time>
      </trkpt>
      <trkpt lat="43.23034" lon="5.39362">
        <ele>77</ele>
        <time>2013-11-24T13:45:27Z</time>
      </trkpt>
      <trkpt lat="43.23042" lon="5.39379">
        <ele>75</ele>
        <time>2013-11-24T13:45:38Z</time>
      </trkpt>
      <trkpt lat="43.23046" lon="5.39392">
        <ele>74</ele>
        <time>2013-11-24T13:45:47Z</time>
      </trkpt>
      <trkpt lat="43.23053" lon="5.39408">
        <ele>74</ele>
        <time>2013-11-24T13:45:59Z</time>
      </trkpt>
      <trkpt lat="43.23058" lon="5.39424">
        <ele>74</ele>
        <time>2013-11-24T13:46:09Z</time>
      </trkpt>
      <trkpt lat="43.23061" lon="5.39441">
        <ele>74</ele>
        <time>2013-11-24T13:46:20Z</time>
      </trkpt>
      <trkpt lat="43.23067" lon="5.39448">
        <ele>73</ele>
        <time>2013-11-24T13:46:32Z</time>
      </trkpt>
      <trkpt lat="43.23076" lon="5.39457">
        <ele>71</ele>
        <time>2013-11-24T13:46:42Z</time>
      </trkpt>
      <trkpt lat="43.23084" lon="5.39468">
        <ele>70</ele>
        <time>2013-11-24T13:46:52Z</time>
      </trkpt>
      <trkpt lat="43.23089" lon="5.39479">
        <ele>69</ele>
        <time>2013-11-24T13:47:01Z</time>
      </trkpt>
      <trkpt lat="43.23094" lon="5.39491">
        <ele>69</ele>
        <time>2013-11-24T13:47:10Z</time>
      </trkpt>
      <trkpt lat="43.23099" lon="5.39501">
        <ele>69</ele>
        <time>2013-11-24T13:47:19Z</time>
      </trkpt>
      <trkpt lat="43.23107" lon="5.39514">
        <ele>67</ele>
        <time>2013-11-24T13:47:29Z</time>
      </trkpt>
      <trkpt lat="43.23112" lon="5.39519">
        <ele>66</ele>
        <time>2013-11-24T13:47:44Z</time>
      </trkpt>
      <trkpt lat="43.23112" lon="5.39516">
        <ele>66</ele>
        <time>2013-11-24T13:48:06Z</time>
      </trkpt>
      <trkpt lat="43.23112" lon="5.39515">
        <ele>66</ele>
        <time>2013-11-24T13:48:20Z</time>
      </trkpt>
      <trkpt lat="43.23111" lon="5.39517">
        <ele>66</ele>
        <time>2013-11-24T13:48:37Z</time>
      </trkpt>
      <trkpt lat="43.2311" lon="5.39518">
        <ele>66</ele>
        <time>2013-11-24T13:48:51Z</time>
      </trkpt>
      <trkpt lat="43.23109" lon="5.39521">
        <ele>66</ele>
        <time>2013-11-24T13:49:05Z</time>
      </trkpt>
      <trkpt lat="43.23109" lon="5.39522">
        <ele>66</ele>
        <time>2013-11-24T13:49:21Z</time>
      </trkpt>
      <trkpt lat="43.2311" lon="5.39522">
        <ele>66</ele>
        <time>2013-11-24T13:49:31Z</time>
      </trkpt>
      <trkpt lat="43.2311" lon="5.3952">
        <ele>68</ele>
        <time>2013-11-24T13:49:52Z</time>
      </trkpt>
      <trkpt lat="43.23109" lon="5.39519">
        <ele>68</ele>
        <time>2013-11-24T13:50:12Z</time>
      </trkpt>
      <trkpt lat="43.23109" lon="5.39516">
        <ele>65</ele>
        <time>2013-11-24T13:50:27Z</time>
      </trkpt>
      <trkpt lat="43.23109" lon="5.39515">
        <ele>65</ele>
        <time>2013-11-24T13:50:43Z</time>
      </trkpt>
      <trkpt lat="43.23109" lon="5.39516">
        <ele>65</ele>
        <time>2013-11-24T13:50:55Z</time>
      </trkpt>
      <trkpt lat="43.23112" lon="5.39516">
        <ele>65</ele>
        <time>2013-11-24T13:51:06Z</time>
      </trkpt>
      <trkpt lat="43.23114" lon="5.39516">
        <ele>65</ele>
        <time>2013-11-24T13:51:17Z</time>
      </trkpt>
      <trkpt lat="43.23115" lon="5.39517">
        <ele>65</ele>
        <time>2013-11-24T13:51:27Z</time>
      </trkpt>
      <trkpt lat="43.23111" lon="5.39516">
        <ele>65</ele>
        <time>2013-11-24T13:51:37Z</time>
      </trkpt>
      <trkpt lat="43.23111" lon="5.39516">
        <ele>65</ele>
        <time>2013-11-24T13:51:38Z</time>
      </trkpt>
    </trkseg>
  </trk>
</gpx>